CZN1A WSSS-EGLL
Flight info
| Callsign | CZN1A |
|---|---|
| Flight time | N/A |
| Altitude | 34000 |
| Route | AROSO5B AROSO Y513 KALIL Y501 RINBA Y503 VPL P628 BOBET/N0508F360 P628 RK G202 ZB L750 RANAH/N0495F380 B449 ETRAP B447 KRS B143 TUNEK A909 RODAR M11 REBLO UM11 CRM UL746 ODERO DCT OPT/N0487F400 DCT SOKRU DCT BEGLA DCT DEXIT DCT INBED DCT BOMBI DCT ADKUV DCT SOGRI DCT DENUT L608 LOGAN |
| Aircraft | A388/J-SADE2E3FGHIJ3J4J5M1RWXY/LB1D1 |
Departure
| Time | 2026-05-07 23:08 |
|---|---|
| Airport | Singapore Changi Airport (WSSS) |
Arrival
| Time | N/A |
|---|---|
| Airport | London Heathrow Airport (EGLL) |
| Time | Latitude | Longitude | Altitude | Speed | Heading |
|---|---|---|---|---|---|
| 2026-05-07 22:53 | 1.35334 | 103.99142 | 35 ft | 0 kts | 221° |
| 2026-05-07 22:58 | 1.35344 | 103.99150 | 34 ft | 4 kts | 211° |
| 2026-05-07 22:58 | 1.35368 | 103.99159 | 33 ft | 4 kts | 178° |
| 2026-05-07 22:58 | 1.35394 | 103.99153 | 32 ft | 4 kts | 149° |
| 2026-05-07 22:59 | 1.35415 | 103.99137 | 32 ft | 4 kts | 134° |
| 2026-05-07 22:59 | 1.35433 | 103.99117 | 33 ft | 4 kts | 125° |
| 2026-05-07 22:59 | 1.35447 | 103.99094 | 33 ft | 4 kts | 118° |
| 2026-05-07 22:59 | 1.35458 | 103.99073 | 32 ft | 1 kts | 114° |
| 2026-05-07 23:01 | 1.35457 | 103.99075 | 35 ft | 1 kts | 114° |
| 2026-05-07 23:01 | 1.35450 | 103.99092 | 35 ft | 4 kts | 114° |
| 2026-05-07 23:02 | 1.35434 | 103.99127 | 35 ft | 7 kts | 114° |
| 2026-05-07 23:02 | 1.35411 | 103.99177 | 35 ft | 9 kts | 113° |
| 2026-05-07 23:02 | 1.35412 | 103.99237 | 35 ft | 9 kts | 64° |
| 2026-05-07 23:02 | 1.35451 | 103.99296 | 35 ft | 11 kts | 53° |
| 2026-05-07 23:03 | 1.35500 | 103.99363 | 35 ft | 13 kts | 54° |
| 2026-05-07 23:03 | 1.35563 | 103.99428 | 35 ft | 14 kts | 33° |
| 2026-05-07 23:03 | 1.35650 | 103.99470 | 35 ft | 14 kts | 21° |
| 2026-05-07 23:03 | 1.35744 | 103.99508 | 35 ft | 15 kts | 22° |
| 2026-05-07 23:04 | 1.35841 | 103.99550 | 35 ft | 16 kts | 24° |
| 2026-05-07 23:04 | 1.35941 | 103.99594 | 35 ft | 16 kts | 22° |
| 2026-05-07 23:04 | 1.36046 | 103.99634 | 35 ft | 16 kts | 20° |
| 2026-05-07 23:04 | 1.36153 | 103.99674 | 35 ft | 17 kts | 21° |
| 2026-05-07 23:05 | 1.36216 | 103.99712 | 35 ft | 14 kts | 52° |
| 2026-05-07 23:05 | 1.36236 | 103.99807 | 35 ft | 14 kts | 90° |
| 2026-05-07 23:05 | 1.36167 | 103.99875 | 35 ft | 11 kts | 186° |
| 2026-05-07 23:05 | 1.36098 | 103.99855 | 35 ft | 10 kts | 206° |
| 2026-05-07 23:06 | 1.36055 | 103.99836 | 35 ft | 10 kts | 200° |
| 2026-05-07 23:06 | 1.35979 | 103.99804 | 35 ft | 0 kts | 197° |
| 2026-05-07 23:06 | 1.35930 | 103.99784 | 35 ft | 8 kts | 199° |
| 2026-05-07 23:06 | 1.35794 | 103.99727 | 35 ft | 45 kts | 202° |
| 2026-05-07 23:07 | 1.35091 | 103.99431 | 35 ft | 114 kts | 202° |
| 2026-05-07 23:07 | 1.34554 | 103.99206 | 35 ft | 138 kts | 202° |
| 2026-05-07 23:07 | 1.33583 | 103.98784 | 35 ft | 165 kts | 204° |
| 2026-05-07 23:07 | 1.32506 | 103.98298 | 182 ft | 167 kts | 204° |
| 2026-05-07 23:08 | 1.31476 | 103.97839 | 585 ft | 164 kts | 204° |
| 2026-05-07 23:08 | 1.30399 | 103.97355 | 846 ft | 179 kts | 203° |
| 2026-05-07 23:08 | 1.29212 | 103.96846 | 1076 ft | 189 kts | 201° |
| 2026-05-07 23:08 | 1.28022 | 103.96381 | 1719 ft | 175 kts | 201° |
| 2026-05-07 23:09 | 1.26914 | 103.95944 | 2170 ft | 172 kts | 201° |
| 2026-05-07 23:09 | 1.25762 | 103.95478 | 2295 ft | 185 kts | 202° |
| 2026-05-07 23:09 | 1.24521 | 103.95004 | 2396 ft | 197 kts | 193° |
| 2026-05-07 23:09 | 1.23132 | 103.94935 | 2450 ft | 206 kts | 169° |
| 2026-05-07 23:10 | 1.21778 | 103.95467 | 2504 ft | 215 kts | 145° |
| 2026-05-07 23:10 | 1.20647 | 103.96468 | 2576 ft | 221 kts | 137° |
| 2026-05-07 23:10 | 1.19480 | 103.97526 | 2636 ft | 236 kts | 139° |
| 2026-05-07 23:10 | 1.18202 | 103.98644 | 2777 ft | 254 kts | 139° |
| 2026-05-07 23:11 | 1.16859 | 103.99867 | 3057 ft | 266 kts | 129° |
| 2026-05-07 23:11 | 1.16029 | 104.01511 | 3545 ft | 269 kts | 102° |
| 2026-05-07 23:11 | 1.16048 | 104.03385 | 4013 ft | 275 kts | 74° |
| 2026-05-07 23:11 | 1.16919 | 104.05080 | 4494 ft | 278 kts | 52° |
| 2026-05-07 23:12 | 1.18159 | 104.06571 | 5026 ft | 280 kts | 48° |
| 2026-05-07 23:12 | 1.19461 | 104.08024 | 5530 ft | 282 kts | 43° |
| 2026-05-07 23:12 | 1.20977 | 104.09250 | 6047 ft | 283 kts | 32° |
| 2026-05-07 23:12 | 1.22711 | 104.10206 | 6519 ft | 286 kts | 27° |
| 2026-05-07 23:13 | 1.24466 | 104.11156 | 6979 ft | 288 kts | 28° |
| 2026-05-07 23:13 | 1.26225 | 104.12116 | 7443 ft | 289 kts | 22° |
| 2026-05-07 23:13 | 1.28186 | 104.12530 | 7891 ft | 290 kts | 356° |
| 2026-05-07 23:13 | 1.30134 | 104.12055 | 8323 ft | 291 kts | 330° |
| 2026-05-07 23:14 | 1.31767 | 104.10855 | 8737 ft | 294 kts | 317° |
| 2026-05-07 23:14 | 1.33271 | 104.09457 | 9182 ft | 296 kts | 315° |
| 2026-05-07 23:14 | 1.34782 | 104.08044 | 9668 ft | 298 kts | 316° |
| 2026-05-07 23:14 | 1.36308 | 104.06672 | 10072 ft | 301 kts | 318° |
| 2026-05-07 23:15 | 1.37934 | 104.05258 | 10207 ft | 314 kts | 319° |
| 2026-05-07 23:15 | 1.39628 | 104.03816 | 10341 ft | 326 kts | 320° |
| 2026-05-07 23:15 | 1.41494 | 104.02515 | 10469 ft | 338 kts | 330° |
| 2026-05-07 23:15 | 1.43666 | 104.01498 | 10593 ft | 351 kts | 340° |
| 2026-05-07 23:16 | 1.46006 | 104.00767 | 10945 ft | 354 kts | 343° |
| 2026-05-07 23:16 | 1.48358 | 104.00025 | 11379 ft | 355 kts | 342° |
| 2026-05-07 23:16 | 1.50710 | 103.99262 | 11805 ft | 357 kts | 342° |
| 2026-05-07 23:16 | 1.53080 | 103.98490 | 12198 ft | 359 kts | 342° |
| 2026-05-07 23:17 | 1.55450 | 103.97719 | 12600 ft | 362 kts | 342° |
| 2026-05-07 23:17 | 1.57857 | 103.96938 | 13010 ft | 364 kts | 343° |
| 2026-05-07 23:17 | 1.60273 | 103.96156 | 13407 ft | 367 kts | 343° |
| 2026-05-07 23:17 | 1.62709 | 103.95368 | 13788 ft | 369 kts | 343° |
| 2026-05-07 23:18 | 1.65160 | 103.94575 | 14145 ft | 371 kts | 343° |
| 2026-05-07 23:18 | 1.67628 | 103.93776 | 14493 ft | 374 kts | 343° |
| 2026-05-07 23:18 | 1.70105 | 103.92975 | 14839 ft | 376 kts | 343° |
| 2026-05-07 23:18 | 1.72600 | 103.92165 | 15191 ft | 378 kts | 342° |
| 2026-05-07 23:19 | 1.74985 | 103.91028 | 15518 ft | 383 kts | 328° |
| 2026-05-07 23:19 | 1.77033 | 103.89323 | 15852 ft | 387 kts | 313° |
| 2026-05-07 23:19 | 1.78714 | 103.87199 | 16175 ft | 391 kts | 308° |
| 2026-05-07 23:19 | 1.80364 | 103.85029 | 16482 ft | 393 kts | 308° |
| 2026-05-07 23:20 | 1.82038 | 103.82857 | 16811 ft | 396 kts | 309° |
| 2026-05-07 23:20 | 1.83708 | 103.80700 | 17141 ft | 398 kts | 309° |
| 2026-05-07 23:20 | 1.85407 | 103.78506 | 17470 ft | 401 kts | 309° |
| 2026-05-07 23:20 | 1.87116 | 103.76299 | 17791 ft | 402 kts | 309° |
| 2026-05-07 23:21 | 1.88831 | 103.74080 | 18108 ft | 405 kts | 309° |
| 2026-05-07 23:21 | 1.90558 | 103.71846 | 18375 ft | 407 kts | 309° |
| 2026-05-07 23:21 | 1.92287 | 103.69602 | 18647 ft | 409 kts | 309° |
| 2026-05-07 23:21 | 1.94028 | 103.67340 | 18912 ft | 411 kts | 309° |
| 2026-05-07 23:22 | 1.95772 | 103.65072 | 19190 ft | 413 kts | 309° |
| 2026-05-07 23:22 | 1.97522 | 103.62796 | 19455 ft | 414 kts | 309° |
| 2026-05-07 23:22 | 1.99286 | 103.60505 | 19713 ft | 416 kts | 309° |
| 2026-05-07 23:22 | 2.01054 | 103.58206 | 19976 ft | 418 kts | 309° |
| 2026-05-07 23:23 | 2.02826 | 103.55904 | 20227 ft | 420 kts | 309° |
| 2026-05-07 23:23 | 2.04613 | 103.53581 | 20472 ft | 422 kts | 309° |
| 2026-05-07 23:23 | 2.06406 | 103.51250 | 20737 ft | 423 kts | 309° |
| 2026-05-07 23:23 | 2.08202 | 103.48916 | 20958 ft | 426 kts | 309° |
| 2026-05-07 23:24 | 2.10014 | 103.46562 | 21185 ft | 427 kts | 309° |
| 2026-05-07 23:24 | 2.11829 | 103.44202 | 21436 ft | 429 kts | 309° |
| 2026-05-07 23:24 | 2.13549 | 103.41753 | 21667 ft | 432 kts | 301° |
| 2026-05-07 23:24 | 2.14917 | 103.39076 | 21904 ft | 434 kts | 293° |
| 2026-05-07 23:25 | 2.15902 | 103.36253 | 22123 ft | 437 kts | 286° |
| 2026-05-07 23:25 | 2.16738 | 103.33290 | 22360 ft | 439 kts | 286° |
| 2026-05-07 23:25 | 2.17591 | 103.30359 | 22589 ft | 440 kts | 287° |
| 2026-05-07 23:25 | 2.18456 | 103.27417 | 22811 ft | 442 kts | 287° |
| 2026-05-07 23:26 | 2.19325 | 103.24463 | 23035 ft | 444 kts | 287° |
| 2026-05-07 23:26 | 2.20183 | 103.21545 | 23255 ft | 445 kts | 287° |
| 2026-05-07 23:26 | 2.21056 | 103.18567 | 23485 ft | 447 kts | 287° |
| 2026-05-07 23:26 | 2.21931 | 103.15581 | 23665 ft | 448 kts | 287° |
| 2026-05-07 23:27 | 2.23689 | 103.09581 | 24083 ft | 449 kts | 287° |
| 2026-05-07 23:27 | 2.24565 | 103.06590 | 24313 ft | 450 kts | 287° |
| 2026-05-07 23:27 | 2.25446 | 103.03580 | 24481 ft | 451 kts | 287° |
| 2026-05-07 23:28 | 2.26329 | 103.00564 | 24670 ft | 453 kts | 287° |
| 2026-05-07 23:28 | 2.27216 | 102.97535 | 24870 ft | 454 kts | 287° |
| 2026-05-07 23:28 | 2.28102 | 102.94506 | 25055 ft | 455 kts | 287° |
| 2026-05-07 23:28 | 2.28991 | 102.91470 | 25254 ft | 456 kts | 287° |
| 2026-05-07 23:29 | 2.29882 | 102.88422 | 25435 ft | 457 kts | 287° |
| 2026-05-07 23:29 | 2.30777 | 102.85365 | 25625 ft | 458 kts | 287° |
| 2026-05-07 23:29 | 2.31676 | 102.82305 | 25820 ft | 460 kts | 287° |
| 2026-05-07 23:29 | 2.32579 | 102.79237 | 26010 ft | 461 kts | 287° |
| 2026-05-07 23:30 | 2.33483 | 102.76158 | 26202 ft | 462 kts | 287° |
| 2026-05-07 23:30 | 2.34386 | 102.73068 | 26382 ft | 464 kts | 287° |
| 2026-05-07 23:30 | 2.35290 | 102.69972 | 26584 ft | 465 kts | 287° |
| 2026-05-07 23:30 | 2.36198 | 102.66864 | 26785 ft | 466 kts | 287° |
| 2026-05-07 23:31 | 2.37108 | 102.63746 | 26991 ft | 468 kts | 287° |
| 2026-05-07 23:31 | 2.38021 | 102.60620 | 27200 ft | 469 kts | 287° |
| 2026-05-07 23:31 | 2.38937 | 102.57484 | 27408 ft | 470 kts | 287° |
| 2026-05-07 23:31 | 2.39855 | 102.54341 | 27612 ft | 472 kts | 287° |
| 2026-05-07 23:32 | 2.40777 | 102.51184 | 27826 ft | 473 kts | 287° |
| 2026-05-07 23:32 | 2.41701 | 102.48022 | 28036 ft | 475 kts | 287° |
| 2026-05-07 23:32 | 2.42622 | 102.44869 | 28262 ft | 476 kts | 287° |
| 2026-05-07 23:32 | 2.43552 | 102.41681 | 28484 ft | 478 kts | 287° |
| 2026-05-07 23:33 | 2.44482 | 102.38496 | 28768 ft | 478 kts | 287° |
| 2026-05-07 23:33 | 2.45613 | 102.35379 | 28992 ft | 479 kts | 297° |
| 2026-05-07 23:33 | 2.47338 | 102.32533 | 29186 ft | 479 kts | 309° |
| 2026-05-07 23:33 | 2.49597 | 102.30094 | 29431 ft | 479 kts | 321° |
| 2026-05-07 23:34 | 2.52210 | 102.28032 | 29650 ft | 480 kts | 324° |
| 2026-05-07 23:34 | 2.54876 | 102.26015 | 29892 ft | 481 kts | 324° |
| 2026-05-07 23:34 | 2.57543 | 102.23979 | 30121 ft | 483 kts | 324° |
| 2026-05-07 23:34 | 2.60169 | 102.21948 | 30345 ft | 484 kts | 323° |
| 2026-05-07 23:35 | 2.62865 | 102.19845 | 30583 ft | 486 kts | 323° |
| 2026-05-07 23:35 | 2.65524 | 102.17761 | 30814 ft | 487 kts | 323° |
| 2026-05-07 23:35 | 2.68200 | 102.15660 | 31025 ft | 489 kts | 323° |
| 2026-05-07 23:35 | 2.70883 | 102.13553 | 31249 ft | 491 kts | 323° |
| 2026-05-07 23:36 | 2.73531 | 102.11473 | 31476 ft | 492 kts | 323° |
| 2026-05-07 23:36 | 2.76262 | 102.09328 | 31697 ft | 494 kts | 323° |
| 2026-05-07 23:36 | 2.78936 | 102.07229 | 31922 ft | 496 kts | 323° |
| 2026-05-07 23:36 | 2.81650 | 102.05097 | 32139 ft | 497 kts | 323° |
| 2026-05-07 23:37 | 2.84374 | 102.02958 | 32380 ft | 499 kts | 323° |
| 2026-05-07 23:37 | 2.87110 | 102.00809 | 32610 ft | 500 kts | 323° |
| 2026-05-07 23:37 | 2.89852 | 101.98656 | 32797 ft | 502 kts | 323° |
| 2026-05-07 23:37 | 2.92600 | 101.96497 | 33031 ft | 504 kts | 323° |
| 2026-05-07 23:38 | 2.95364 | 101.94327 | 33212 ft | 506 kts | 323° |
| 2026-05-07 23:38 | 2.98134 | 101.92151 | 33443 ft | 507 kts | 323° |
| 2026-05-07 23:38 | 3.00916 | 101.89966 | 33607 ft | 510 kts | 323° |
| 2026-05-07 23:38 | 3.03716 | 101.87766 | 33810 ft | 512 kts | 323° |
| 2026-05-07 23:39 | 3.09372 | 101.83323 | 33854 ft | 521 kts | 323° |
| 2026-05-07 23:39 | 3.15074 | 101.78842 | 33857 ft | 521 kts | 323° |
| 2026-05-07 23:40 | 3.20780 | 101.74357 | 33847 ft | 521 kts | 323° |
| 2026-05-07 23:40 | 3.26479 | 101.69879 | 33847 ft | 521 kts | 323° |
| 2026-05-07 23:41 | 3.32271 | 101.65522 | 33850 ft | 520 kts | 329° |
| 2026-05-07 23:41 | 3.38666 | 101.62216 | 33841 ft | 517 kts | 338° |
| 2026-05-07 23:42 | 3.45255 | 101.59305 | 33846 ft | 517 kts | 337° |
| 2026-05-07 23:42 | 3.51832 | 101.56371 | 33852 ft | 517 kts | 337° |
| 2026-05-07 23:43 | 3.58411 | 101.53441 | 33856 ft | 518 kts | 337° |
| 2026-05-07 23:43 | 3.64997 | 101.50511 | 33864 ft | 519 kts | 337° |
| 2026-05-07 23:44 | 3.71396 | 101.47663 | 33872 ft | 519 kts | 337° |
| 2026-05-07 23:44 | 3.78002 | 101.44723 | 33863 ft | 520 kts | 337° |
| 2026-05-07 23:45 | 3.84614 | 101.41780 | 33868 ft | 521 kts | 337° |
| 2026-05-07 23:45 | 3.91243 | 101.38831 | 33872 ft | 521 kts | 337° |
| 2026-05-07 23:46 | 3.97873 | 101.35882 | 33875 ft | 521 kts | 337° |
| 2026-05-07 23:46 | 4.04503 | 101.32933 | 33882 ft | 521 kts | 337° |
| 2026-05-07 23:47 | 4.11126 | 101.29986 | 33868 ft | 521 kts | 337° |
| 2026-05-07 23:47 | 4.17755 | 101.27035 | 33859 ft | 521 kts | 337° |
| 2026-05-07 23:48 | 4.24382 | 101.24085 | 33864 ft | 521 kts | 337° |
| 2026-05-07 23:48 | 4.31003 | 101.21138 | 33862 ft | 521 kts | 337° |
| 2026-05-07 23:49 | 4.37589 | 101.18205 | 33862 ft | 521 kts | 337° |
| 2026-05-07 23:49 | 4.44204 | 101.15258 | 33858 ft | 521 kts | 337° |
| 2026-05-07 23:50 | 4.50830 | 101.12307 | 33858 ft | 521 kts | 337° |
| 2026-05-07 23:50 | 4.57447 | 101.09359 | 33858 ft | 521 kts | 337° |
| 2026-05-07 23:51 | 4.64090 | 101.06473 | 33856 ft | 520 kts | 338° |
| 2026-05-07 23:51 | 4.70754 | 101.03620 | 33859 ft | 520 kts | 338° |
| 2026-05-07 23:52 | 4.77409 | 101.00756 | 33855 ft | 520 kts | 338° |
| 2026-05-07 23:52 | 4.84050 | 100.97894 | 33855 ft | 520 kts | 338° |
| 2026-05-07 23:53 | 4.90702 | 100.95025 | 33858 ft | 520 kts | 338° |
| 2026-05-07 23:53 | 4.96229 | 100.92641 | 33858 ft | 520 kts | 338° |
| 2026-05-07 23:54 | 5.02888 | 100.89766 | 33861 ft | 521 kts | 338° |
| 2026-05-07 23:54 | 5.09541 | 100.86891 | 33859 ft | 521 kts | 338° |
| 2026-05-07 23:55 | 5.16192 | 100.84017 | 33848 ft | 520 kts | 338° |
| 2026-05-07 23:55 | 5.22838 | 100.81143 | 33847 ft | 520 kts | 338° |
| 2026-05-07 23:56 | 5.29488 | 100.78268 | 33846 ft | 520 kts | 338° |
| 2026-05-07 23:56 | 5.35938 | 100.74985 | 33842 ft | 521 kts | 327° |
| 2026-05-07 23:57 | 5.41538 | 100.70446 | 33828 ft | 522 kts | 315° |
| 2026-05-07 23:57 | 5.46619 | 100.65231 | 33827 ft | 522 kts | 315° |
| 2026-05-07 23:58 | 5.51724 | 100.60045 | 33828 ft | 522 kts | 315° |
| 2026-05-07 23:58 | 5.56825 | 100.54853 | 33821 ft | 523 kts | 315° |
| 2026-05-07 23:59 | 5.61924 | 100.49657 | 33822 ft | 523 kts | 315° |
| 2026-05-07 23:59 | 5.67028 | 100.44452 | 33822 ft | 523 kts | 315° |
| 2026-05-08 00:00 | 5.72101 | 100.39279 | 33825 ft | 523 kts | 315° |
| 2026-05-08 00:00 | 5.77206 | 100.34069 | 33829 ft | 523 kts | 315° |
| 2026-05-08 00:01 | 5.82344 | 100.28826 | 33831 ft | 523 kts | 315° |
| 2026-05-08 00:01 | 5.87447 | 100.23617 | 33843 ft | 523 kts | 315° |
| 2026-05-08 00:02 | 5.92516 | 100.18441 | 33855 ft | 522 kts | 315° |
| 2026-05-08 00:02 | 5.97612 | 100.13235 | 33853 ft | 522 kts | 315° |
| 2026-05-08 00:03 | 6.02697 | 100.08040 | 33853 ft | 521 kts | 315° |
| 2026-05-08 00:03 | 6.07778 | 100.02847 | 33847 ft | 521 kts | 315° |
| 2026-05-08 00:04 | 6.12850 | 99.97662 | 33843 ft | 520 kts | 315° |
| 2026-05-08 00:04 | 6.17922 | 99.92475 | 33839 ft | 520 kts | 315° |
| 2026-05-08 00:05 | 6.22992 | 99.87288 | 33840 ft | 520 kts | 315° |
| 2026-05-08 00:05 | 6.28063 | 99.82100 | 33855 ft | 520 kts | 315° |
| 2026-05-08 00:06 | 6.33007 | 99.76802 | 33833 ft | 520 kts | 308° |
| 2026-05-08 00:06 | 6.36803 | 99.70621 | 33828 ft | 521 kts | 295° |
| 2026-05-08 00:07 | 6.39405 | 99.63835 | 33827 ft | 521 kts | 290° |
| 2026-05-08 00:07 | 6.41947 | 99.57014 | 33831 ft | 521 kts | 291° |
| 2026-05-08 00:08 | 6.44490 | 99.50192 | 33835 ft | 521 kts | 291° |
| 2026-05-08 00:08 | 6.47027 | 99.43367 | 33849 ft | 521 kts | 291° |
| 2026-05-08 00:09 | 6.49558 | 99.36549 | 33850 ft | 521 kts | 291° |
| 2026-05-08 00:09 | 6.52091 | 99.29725 | 33849 ft | 521 kts | 291° |
| 2026-05-08 00:10 | 6.54622 | 99.22902 | 33850 ft | 520 kts | 291° |
| 2026-05-08 00:10 | 6.57132 | 99.16134 | 33849 ft | 520 kts | 291° |
| 2026-05-08 00:11 | 6.59658 | 99.09318 | 33847 ft | 520 kts | 291° |
| 2026-05-08 00:11 | 6.62183 | 99.02502 | 33845 ft | 520 kts | 290° |
| 2026-05-08 00:12 | 6.64704 | 98.95692 | 33844 ft | 520 kts | 290° |
| 2026-05-08 00:12 | 6.67227 | 98.88875 | 33844 ft | 519 kts | 290° |
| 2026-05-08 00:13 | 6.69744 | 98.82070 | 33845 ft | 519 kts | 290° |
| 2026-05-08 00:13 | 6.72262 | 98.75258 | 33845 ft | 519 kts | 290° |
| 2026-05-08 00:14 | 6.74780 | 98.68444 | 33848 ft | 519 kts | 290° |
| 2026-05-08 00:14 | 6.77297 | 98.61629 | 33850 ft | 519 kts | 290° |
| 2026-05-08 00:15 | 6.79812 | 98.54818 | 33850 ft | 519 kts | 290° |
| 2026-05-08 00:15 | 6.82323 | 98.48014 | 33850 ft | 519 kts | 290° |
| 2026-05-08 00:16 | 6.84832 | 98.41209 | 33848 ft | 519 kts | 290° |
| 2026-05-08 00:16 | 6.87340 | 98.34405 | 33846 ft | 519 kts | 290° |
| 2026-05-08 00:17 | 6.89847 | 98.27602 | 33842 ft | 519 kts | 290° |
| 2026-05-08 00:17 | 6.92358 | 98.20784 | 33841 ft | 520 kts | 290° |
| 2026-05-08 00:18 | 6.94851 | 98.14012 | 33848 ft | 520 kts | 290° |
| 2026-05-08 00:18 | 6.97364 | 98.07180 | 33852 ft | 520 kts | 290° |
| 2026-05-08 00:19 | 7.00657 | 98.00742 | 33851 ft | 519 kts | 308° |
| 2026-05-08 00:19 | 7.05796 | 97.95705 | 33855 ft | 516 kts | 325° |
| 2026-05-08 00:20 | 7.11595 | 97.91451 | 33854 ft | 516 kts | 324° |
| 2026-05-08 00:20 | 7.17377 | 97.87161 | 33856 ft | 516 kts | 324° |
| 2026-05-08 00:21 | 7.23162 | 97.82872 | 33855 ft | 516 kts | 324° |
| 2026-05-08 00:21 | 7.28946 | 97.78586 | 33855 ft | 516 kts | 324° |
| 2026-05-08 00:22 | 7.34735 | 97.74296 | 33856 ft | 516 kts | 324° |
| 2026-05-08 00:22 | 7.40524 | 97.70005 | 33857 ft | 516 kts | 324° |
| 2026-05-08 00:23 | 7.46310 | 97.65715 | 33856 ft | 516 kts | 324° |
| 2026-05-08 00:23 | 7.52091 | 97.61427 | 33853 ft | 516 kts | 324° |
| 2026-05-08 00:24 | 7.57880 | 97.57132 | 33846 ft | 516 kts | 324° |
| 2026-05-08 00:24 | 7.63657 | 97.52844 | 33849 ft | 516 kts | 324° |
| 2026-05-08 00:25 | 7.69447 | 97.48550 | 33850 ft | 516 kts | 324° |
| 2026-05-08 00:25 | 7.75199 | 97.44290 | 33851 ft | 517 kts | 324° |
| 2026-05-08 00:26 | 7.80994 | 97.39995 | 33854 ft | 517 kts | 324° |
| 2026-05-08 00:26 | 7.86778 | 97.35706 | 33854 ft | 517 kts | 324° |
| 2026-05-08 00:27 | 7.92573 | 97.31408 | 33855 ft | 517 kts | 324° |
| 2026-05-08 00:27 | 7.98367 | 97.27108 | 33855 ft | 517 kts | 324° |
| 2026-05-08 00:28 | 8.03979 | 97.22567 | 33853 ft | 518 kts | 316° |
| 2026-05-08 00:28 | 8.08566 | 97.16986 | 33852 ft | 519 kts | 303° |
| 2026-05-08 00:29 | 8.12315 | 97.10756 | 33850 ft | 519 kts | 302° |
| 2026-05-08 00:29 | 8.16072 | 97.04526 | 33854 ft | 519 kts | 302° |
| 2026-05-08 00:30 | 8.19798 | 96.98339 | 33858 ft | 520 kts | 302° |
| 2026-05-08 00:30 | 8.23548 | 96.92100 | 33860 ft | 520 kts | 302° |
| 2026-05-08 00:31 | 8.27299 | 96.85855 | 33860 ft | 520 kts | 302° |
| 2026-05-08 00:31 | 8.31047 | 96.79611 | 33866 ft | 520 kts | 302° |
| 2026-05-08 00:32 | 8.34793 | 96.73368 | 33862 ft | 520 kts | 302° |
| 2026-05-08 00:32 | 8.38534 | 96.67130 | 33863 ft | 519 kts | 302° |
| 2026-05-08 00:33 | 8.42281 | 96.60881 | 33862 ft | 519 kts | 302° |
| 2026-05-08 00:33 | 8.46017 | 96.54647 | 33858 ft | 519 kts | 302° |
| 2026-05-08 00:34 | 8.49754 | 96.48407 | 33859 ft | 519 kts | 302° |
| 2026-05-08 00:34 | 8.53492 | 96.42162 | 33851 ft | 519 kts | 301° |
| 2026-05-08 00:35 | 8.57227 | 96.35921 | 33852 ft | 519 kts | 301° |
| 2026-05-08 00:35 | 8.60965 | 96.29671 | 33855 ft | 520 kts | 301° |
| 2026-05-08 00:36 | 8.64698 | 96.23426 | 33857 ft | 520 kts | 301° |
| 2026-05-08 00:36 | 8.68418 | 96.17199 | 33862 ft | 520 kts | 302° |
| 2026-05-08 00:37 | 8.72150 | 96.10951 | 33863 ft | 520 kts | 302° |
| 2026-05-08 00:38 | 8.77758 | 96.01557 | 33862 ft | 520 kts | 301° |
| 2026-05-08 00:38 | 8.81486 | 95.95298 | 33862 ft | 520 kts | 301° |
| 2026-05-08 00:39 | 8.85217 | 95.89033 | 33861 ft | 520 kts | 301° |
| 2026-05-08 00:39 | 8.88945 | 95.82769 | 33861 ft | 520 kts | 301° |
| 2026-05-08 00:40 | 8.92672 | 95.76507 | 33860 ft | 520 kts | 301° |
| 2026-05-08 00:40 | 8.96397 | 95.70243 | 33856 ft | 520 kts | 301° |
| 2026-05-08 00:41 | 9.00122 | 95.63975 | 33850 ft | 520 kts | 301° |
| 2026-05-08 00:41 | 9.03850 | 95.57700 | 33853 ft | 520 kts | 301° |
| 2026-05-08 00:42 | 9.07578 | 95.51423 | 33859 ft | 521 kts | 301° |
| 2026-05-08 00:42 | 9.11311 | 95.45134 | 33861 ft | 521 kts | 301° |
| 2026-05-08 00:43 | 9.15041 | 95.38846 | 33862 ft | 521 kts | 301° |
| 2026-05-08 00:43 | 9.18141 | 95.33617 | 33865 ft | 521 kts | 301° |
| 2026-05-08 00:44 | 9.22480 | 95.26296 | 33852 ft | 522 kts | 301° |
| 2026-05-08 00:44 | 9.26219 | 95.19983 | 33855 ft | 522 kts | 301° |
| 2026-05-08 00:45 | 9.29346 | 95.14702 | 33861 ft | 523 kts | 301° |
| 2026-05-08 00:45 | 9.33085 | 95.08383 | 33863 ft | 523 kts | 301° |
| 2026-05-08 00:46 | 9.36820 | 95.02069 | 33862 ft | 523 kts | 301° |
| 2026-05-08 00:46 | 9.40558 | 94.95745 | 33861 ft | 523 kts | 301° |
| 2026-05-08 00:47 | 9.44283 | 94.89442 | 33891 ft | 521 kts | 301° |
| 2026-05-08 00:47 | 9.47998 | 94.83152 | 33879 ft | 520 kts | 301° |
| 2026-05-08 00:48 | 9.51701 | 94.76878 | 33868 ft | 518 kts | 301° |
| 2026-05-08 00:48 | 9.55398 | 94.70611 | 33860 ft | 517 kts | 301° |
| 2026-05-08 00:49 | 9.59084 | 94.64360 | 33851 ft | 516 kts | 301° |
| 2026-05-08 00:49 | 9.62762 | 94.58119 | 33844 ft | 516 kts | 301° |
| 2026-05-08 00:50 | 9.66415 | 94.51916 | 33841 ft | 515 kts | 301° |
| 2026-05-08 00:50 | 9.70106 | 94.45696 | 33840 ft | 515 kts | 304° |
| 2026-05-08 00:51 | 9.74584 | 94.40041 | 33844 ft | 515 kts | 315° |
| 2026-05-08 00:51 | 9.79945 | 94.35239 | 33846 ft | 514 kts | 321° |
| 2026-05-08 00:52 | 9.85411 | 94.30532 | 33832 ft | 516 kts | 320° |
| 2026-05-08 00:52 | 9.90893 | 94.25801 | 33846 ft | 518 kts | 320° |
| 2026-05-08 00:53 | 9.96392 | 94.21061 | 33861 ft | 520 kts | 320° |
| 2026-05-08 00:53 | 10.01910 | 94.16303 | 33867 ft | 521 kts | 320° |
| 2026-05-08 00:54 | 10.07447 | 94.11528 | 33870 ft | 522 kts | 320° |
| 2026-05-08 00:54 | 10.12982 | 94.06753 | 33880 ft | 523 kts | 320° |
| 2026-05-08 00:55 | 10.18523 | 94.01970 | 33876 ft | 523 kts | 320° |
| 2026-05-08 00:55 | 10.24069 | 93.97180 | 33863 ft | 524 kts | 320° |
| 2026-05-08 00:56 | 10.29618 | 93.92385 | 33864 ft | 524 kts | 320° |
| 2026-05-08 00:56 | 10.35163 | 93.87591 | 33868 ft | 524 kts | 320° |
| 2026-05-08 00:57 | 10.40706 | 93.82798 | 33866 ft | 523 kts | 320° |
| 2026-05-08 00:57 | 10.46215 | 93.78030 | 33857 ft | 523 kts | 320° |
| 2026-05-08 00:58 | 10.51792 | 93.73202 | 33857 ft | 523 kts | 320° |
| 2026-05-08 00:58 | 10.57328 | 93.68409 | 33876 ft | 523 kts | 320° |
| 2026-05-08 00:59 | 10.62825 | 93.63645 | 33871 ft | 522 kts | 320° |
| 2026-05-08 00:59 | 10.68354 | 93.58852 | 33867 ft | 522 kts | 320° |
| 2026-05-08 01:00 | 10.73871 | 93.54066 | 33865 ft | 521 kts | 320° |
| 2026-05-08 01:00 | 10.79387 | 93.49279 | 33864 ft | 521 kts | 320° |
| 2026-05-08 01:01 | 10.84896 | 93.44496 | 33863 ft | 521 kts | 320° |
| 2026-05-08 01:01 | 10.90405 | 93.39710 | 33860 ft | 521 kts | 320° |
| 2026-05-08 01:02 | 10.95909 | 93.34926 | 33870 ft | 520 kts | 320° |
| 2026-05-08 01:02 | 11.01406 | 93.30146 | 33868 ft | 520 kts | 320° |
| 2026-05-08 01:03 | 11.06902 | 93.25365 | 33868 ft | 519 kts | 320° |
| 2026-05-08 01:03 | 11.12389 | 93.20588 | 33865 ft | 519 kts | 320° |
| 2026-05-08 01:04 | 11.17879 | 93.15807 | 33860 ft | 519 kts | 320° |
| 2026-05-08 01:04 | 11.23369 | 93.11024 | 33864 ft | 519 kts | 320° |
| 2026-05-08 01:05 | 11.28857 | 93.06239 | 33864 ft | 519 kts | 320° |
| 2026-05-08 01:05 | 11.34351 | 93.01448 | 33863 ft | 520 kts | 320° |
| 2026-05-08 01:06 | 11.39851 | 92.96648 | 33868 ft | 521 kts | 320° |
| 2026-05-08 01:06 | 11.45346 | 92.91848 | 33871 ft | 521 kts | 320° |
| 2026-05-08 01:07 | 11.50849 | 92.87041 | 33874 ft | 521 kts | 320° |
| 2026-05-08 01:07 | 11.56322 | 92.82257 | 33874 ft | 521 kts | 320° |
| 2026-05-08 01:08 | 11.61830 | 92.77441 | 33857 ft | 522 kts | 320° |
| 2026-05-08 01:08 | 11.67108 | 92.72367 | 33864 ft | 522 kts | 313° |
| 2026-05-08 01:09 | 11.72044 | 92.66940 | 33864 ft | 521 kts | 313° |
| 2026-05-08 01:09 | 11.76990 | 92.61548 | 33879 ft | 520 kts | 313° |
| 2026-05-08 01:10 | 11.81928 | 92.56154 | 33874 ft | 519 kts | 313° |
| 2026-05-08 01:10 | 11.86845 | 92.50777 | 33869 ft | 518 kts | 313° |
| 2026-05-08 01:11 | 11.91757 | 92.45401 | 33863 ft | 517 kts | 313° |
| 2026-05-08 01:11 | 11.96657 | 92.40035 | 33855 ft | 516 kts | 313° |
| 2026-05-08 01:12 | 12.01558 | 92.34664 | 33850 ft | 516 kts | 313° |
| 2026-05-08 01:12 | 12.06448 | 92.29302 | 33836 ft | 516 kts | 313° |
| 2026-05-08 01:13 | 12.11352 | 92.23922 | 33827 ft | 518 kts | 313° |
| 2026-05-08 01:13 | 12.16264 | 92.18531 | 33840 ft | 519 kts | 313° |
| 2026-05-08 01:14 | 12.21199 | 92.13110 | 33853 ft | 521 kts | 313° |
| 2026-05-08 01:14 | 12.26135 | 92.07686 | 33866 ft | 522 kts | 313° |
| 2026-05-08 01:15 | 12.31055 | 92.02276 | 33873 ft | 523 kts | 313° |
| 2026-05-08 01:15 | 12.36046 | 91.96784 | 33880 ft | 524 kts | 313° |
| 2026-05-08 01:16 | 12.41000 | 91.91329 | 33880 ft | 523 kts | 313° |
| 2026-05-08 01:16 | 12.45918 | 91.85911 | 33893 ft | 522 kts | 313° |
| 2026-05-08 01:17 | 12.50847 | 91.80478 | 33882 ft | 521 kts | 313° |
| 2026-05-08 01:17 | 12.55805 | 91.75010 | 33871 ft | 519 kts | 313° |
| 2026-05-08 01:18 | 12.60676 | 91.69635 | 33859 ft | 518 kts | 313° |
| 2026-05-08 01:18 | 12.65577 | 91.64223 | 33856 ft | 517 kts | 313° |
| 2026-05-08 01:19 | 12.70463 | 91.58823 | 33845 ft | 517 kts | 313° |
| 2026-05-08 01:19 | 12.75344 | 91.53427 | 33845 ft | 517 kts | 313° |
| 2026-05-08 01:20 | 12.80231 | 91.48021 | 33867 ft | 516 kts | 312° |
| 2026-05-08 01:20 | 12.85100 | 91.42631 | 33863 ft | 515 kts | 312° |
| 2026-05-08 01:21 | 12.89971 | 91.37235 | 33853 ft | 515 kts | 312° |
| 2026-05-08 01:21 | 12.94837 | 91.31841 | 33854 ft | 515 kts | 312° |
| 2026-05-08 01:22 | 12.99703 | 91.26445 | 33862 ft | 515 kts | 312° |
| 2026-05-08 01:22 | 13.04566 | 91.21048 | 33861 ft | 515 kts | 312° |
| 2026-05-08 01:23 | 13.09433 | 91.15645 | 33853 ft | 516 kts | 312° |
| 2026-05-08 01:23 | 13.14300 | 91.10238 | 33858 ft | 516 kts | 312° |
| 2026-05-08 01:24 | 13.19166 | 91.04827 | 33863 ft | 516 kts | 312° |
| 2026-05-08 01:24 | 13.24002 | 90.99446 | 33867 ft | 516 kts | 312° |
| 2026-05-08 01:25 | 13.28898 | 90.93997 | 33868 ft | 516 kts | 312° |
| 2026-05-08 01:25 | 13.33768 | 90.88572 | 33867 ft | 516 kts | 312° |
| 2026-05-08 01:26 | 13.38597 | 90.83189 | 33865 ft | 516 kts | 312° |
| 2026-05-08 01:26 | 13.43462 | 90.77763 | 33865 ft | 516 kts | 311° |
| 2026-05-08 01:27 | 13.48320 | 90.72341 | 33871 ft | 516 kts | 311° |
| 2026-05-08 01:27 | 13.53177 | 90.66918 | 33868 ft | 515 kts | 311° |
| 2026-05-08 01:28 | 13.57952 | 90.61581 | 33865 ft | 515 kts | 311° |
| 2026-05-08 01:28 | 13.62869 | 90.56082 | 33864 ft | 515 kts | 311° |
| 2026-05-08 01:29 | 13.67711 | 90.50664 | 33862 ft | 515 kts | 311° |
| 2026-05-08 01:29 | 13.72553 | 90.45243 | 33861 ft | 515 kts | 311° |
| 2026-05-08 01:30 | 13.77393 | 90.39820 | 33864 ft | 515 kts | 311° |
| 2026-05-08 01:30 | 13.82241 | 90.34384 | 33845 ft | 516 kts | 311° |
| 2026-05-08 01:31 | 13.87096 | 90.28938 | 33844 ft | 517 kts | 311° |
| 2026-05-08 01:31 | 13.91967 | 90.23469 | 33857 ft | 519 kts | 311° |
| 2026-05-08 01:32 | 13.96850 | 90.17983 | 33863 ft | 520 kts | 311° |
| 2026-05-08 01:32 | 14.00913 | 90.13416 | 33877 ft | 521 kts | 311° |
| 2026-05-08 01:33 | 14.05791 | 90.07930 | 33884 ft | 522 kts | 311° |
| 2026-05-08 01:33 | 14.10691 | 90.02414 | 33887 ft | 522 kts | 311° |
| 2026-05-08 01:34 | 14.15589 | 89.96897 | 33884 ft | 522 kts | 311° |
| 2026-05-08 01:34 | 14.20496 | 89.91367 | 33879 ft | 522 kts | 311° |
| 2026-05-08 01:35 | 14.25390 | 89.85848 | 33890 ft | 521 kts | 311° |
| 2026-05-08 01:35 | 14.30276 | 89.80332 | 33884 ft | 521 kts | 311° |
| 2026-05-08 01:36 | 14.35155 | 89.74821 | 33875 ft | 520 kts | 311° |
| 2026-05-08 01:36 | 14.39992 | 89.69353 | 33872 ft | 519 kts | 311° |
| 2026-05-08 01:37 | 14.44857 | 89.63851 | 33868 ft | 519 kts | 311° |
| 2026-05-08 01:37 | 14.49710 | 89.58358 | 33865 ft | 518 kts | 311° |
| 2026-05-08 01:38 | 14.54574 | 89.52849 | 33865 ft | 518 kts | 311° |
| 2026-05-08 01:38 | 14.59426 | 89.47349 | 33874 ft | 518 kts | 311° |
| 2026-05-08 01:39 | 14.64282 | 89.41843 | 33872 ft | 518 kts | 311° |
| 2026-05-08 01:39 | 14.69129 | 89.36343 | 33874 ft | 518 kts | 311° |
| 2026-05-08 01:40 | 14.73979 | 89.30838 | 33875 ft | 518 kts | 311° |
| 2026-05-08 01:40 | 14.78976 | 89.25464 | 33873 ft | 518 kts | 313° |
| 2026-05-08 01:41 | 14.84026 | 89.20149 | 33890 ft | 517 kts | 313° |
| 2026-05-08 01:41 | 14.89041 | 89.14821 | 33883 ft | 517 kts | 312° |
| 2026-05-08 01:42 | 14.94046 | 89.09482 | 33890 ft | 516 kts | 312° |
| 2026-05-08 01:42 | 14.99028 | 89.04162 | 33895 ft | 515 kts | 312° |
| 2026-05-08 01:43 | 15.04002 | 88.98848 | 33884 ft | 513 kts | 312° |
| 2026-05-08 01:43 | 15.08961 | 88.93545 | 33874 ft | 512 kts | 312° |
| 2026-05-08 01:44 | 15.13917 | 88.88242 | 33868 ft | 512 kts | 312° |
| 2026-05-08 01:44 | 15.18862 | 88.82947 | 33853 ft | 512 kts | 312° |
| 2026-05-08 01:45 | 15.23813 | 88.77642 | 33851 ft | 512 kts | 312° |
| 2026-05-08 01:45 | 15.28764 | 88.72333 | 33861 ft | 513 kts | 312° |
| 2026-05-08 01:46 | 15.33727 | 88.67007 | 33868 ft | 514 kts | 312° |
| 2026-05-08 01:46 | 15.38697 | 88.61670 | 33877 ft | 515 kts | 312° |
| 2026-05-08 01:47 | 15.43640 | 88.56359 | 33881 ft | 515 kts | 312° |
| 2026-05-08 01:47 | 15.48620 | 88.51002 | 33885 ft | 516 kts | 312° |
| 2026-05-08 01:48 | 15.56088 | 88.42965 | 33875 ft | 517 kts | 311° |
| 2026-05-08 01:48 | 15.61080 | 88.37586 | 33879 ft | 517 kts | 311° |
| 2026-05-08 01:49 | 15.66067 | 88.32210 | 33887 ft | 517 kts | 311° |
| 2026-05-08 01:49 | 15.71047 | 88.26835 | 33887 ft | 517 kts | 311° |
| 2026-05-08 01:50 | 15.76032 | 88.21452 | 33887 ft | 517 kts | 311° |
| 2026-05-08 01:50 | 15.81007 | 88.16076 | 33884 ft | 516 kts | 311° |
| 2026-05-08 01:51 | 15.85981 | 88.10696 | 33882 ft | 516 kts | 311° |
| 2026-05-08 01:51 | 15.90954 | 88.05315 | 33877 ft | 516 kts | 311° |
| 2026-05-08 01:52 | 15.95919 | 87.99936 | 33877 ft | 516 kts | 311° |
| 2026-05-08 01:52 | 16.00882 | 87.94557 | 33910 ft | 514 kts | 311° |
| 2026-05-08 01:53 | 16.05830 | 87.89190 | 33905 ft | 513 kts | 311° |
| 2026-05-08 01:53 | 16.10723 | 87.83878 | 33896 ft | 512 kts | 311° |
| 2026-05-08 01:54 | 16.15639 | 87.78536 | 33879 ft | 511 kts | 311° |
| 2026-05-08 01:54 | 16.20546 | 87.73200 | 33876 ft | 510 kts | 311° |
| 2026-05-08 01:55 | 16.25444 | 87.67871 | 33886 ft | 509 kts | 311° |
| 2026-05-08 01:55 | 16.30329 | 87.62551 | 33882 ft | 508 kts | 311° |
| 2026-05-08 01:56 | 16.35210 | 87.57232 | 33904 ft | 507 kts | 311° |
| 2026-05-08 01:56 | 16.40076 | 87.51925 | 33892 ft | 506 kts | 310° |
| 2026-05-08 01:57 | 16.44938 | 87.46618 | 33885 ft | 505 kts | 310° |
| 2026-05-08 01:57 | 16.49784 | 87.41325 | 33884 ft | 505 kts | 310° |
| 2026-05-08 01:58 | 16.54628 | 87.36029 | 33881 ft | 505 kts | 310° |
| 2026-05-08 01:58 | 16.59468 | 87.30735 | 33888 ft | 504 kts | 310° |
| 2026-05-08 01:59 | 16.64312 | 87.25430 | 33887 ft | 504 kts | 310° |
| 2026-05-08 01:59 | 16.69148 | 87.20133 | 33900 ft | 504 kts | 310° |
| 2026-05-08 02:00 | 16.73983 | 87.14833 | 33899 ft | 504 kts | 310° |
| 2026-05-08 02:00 | 16.78864 | 87.09590 | 33898 ft | 504 kts | 311° |
| 2026-05-08 02:01 | 16.83770 | 87.04370 | 33892 ft | 503 kts | 311° |
| 2026-05-08 02:01 | 16.88663 | 86.99145 | 33891 ft | 503 kts | 311° |
| 2026-05-08 02:02 | 16.93546 | 86.93918 | 33894 ft | 503 kts | 311° |
| 2026-05-08 02:02 | 16.98435 | 86.88678 | 33888 ft | 503 kts | 311° |
| 2026-05-08 02:03 | 17.03324 | 86.83436 | 33902 ft | 504 kts | 311° |
| 2026-05-08 02:03 | 17.08208 | 86.78194 | 33901 ft | 504 kts | 311° |
| 2026-05-08 02:04 | 17.13093 | 86.72947 | 33898 ft | 504 kts | 311° |
| 2026-05-08 02:04 | 17.17977 | 86.67696 | 33898 ft | 503 kts | 311° |
| 2026-05-08 02:05 | 17.22825 | 86.62480 | 33901 ft | 503 kts | 311° |
| 2026-05-08 02:05 | 17.27701 | 86.57230 | 33901 ft | 503 kts | 311° |
| 2026-05-08 02:06 | 17.32583 | 86.51969 | 33895 ft | 504 kts | 311° |
| 2026-05-08 02:06 | 17.37470 | 86.46700 | 33915 ft | 504 kts | 310° |
| 2026-05-08 02:07 | 17.42350 | 86.41433 | 33911 ft | 504 kts | 310° |
| 2026-05-08 02:07 | 17.47230 | 86.36160 | 33913 ft | 504 kts | 310° |
| 2026-05-08 02:08 | 17.52111 | 86.30883 | 33908 ft | 504 kts | 310° |
| 2026-05-08 02:08 | 17.56990 | 86.25604 | 33904 ft | 504 kts | 310° |
| 2026-05-08 02:09 | 17.61860 | 86.20331 | 33910 ft | 503 kts | 310° |
| 2026-05-08 02:09 | 17.66705 | 86.15080 | 33907 ft | 503 kts | 310° |
| 2026-05-08 02:10 | 17.71568 | 86.09806 | 33920 ft | 503 kts | 310° |
| 2026-05-08 02:10 | 17.76427 | 86.04531 | 33908 ft | 503 kts | 310° |
| 2026-05-08 02:11 | 17.81278 | 85.99260 | 33909 ft | 502 kts | 310° |
| 2026-05-08 02:11 | 17.86130 | 85.93983 | 33909 ft | 502 kts | 310° |
| 2026-05-08 02:12 | 17.90943 | 85.88745 | 33904 ft | 502 kts | 310° |
| 2026-05-08 02:12 | 17.95786 | 85.83470 | 33904 ft | 502 kts | 310° |
| 2026-05-08 02:13 | 18.00610 | 85.78212 | 33909 ft | 502 kts | 310° |
| 2026-05-08 02:13 | 18.05453 | 85.72928 | 33928 ft | 501 kts | 310° |
| 2026-05-08 02:14 | 18.10290 | 85.67647 | 33920 ft | 501 kts | 310° |
| 2026-05-08 02:14 | 18.15123 | 85.62364 | 33916 ft | 501 kts | 310° |
| 2026-05-08 02:15 | 18.19940 | 85.57095 | 33915 ft | 500 kts | 310° |
| 2026-05-08 02:15 | 18.24746 | 85.51833 | 33911 ft | 500 kts | 309° |
| 2026-05-08 02:16 | 18.29565 | 85.46553 | 33907 ft | 499 kts | 309° |
| 2026-05-08 02:16 | 18.34374 | 85.41280 | 33911 ft | 499 kts | 310° |
| 2026-05-08 02:17 | 18.39090 | 85.36103 | 33925 ft | 499 kts | 310° |
| 2026-05-08 02:17 | 18.43886 | 85.30835 | 33921 ft | 498 kts | 310° |
| 2026-05-08 02:18 | 18.48678 | 85.25567 | 33916 ft | 498 kts | 310° |
| 2026-05-08 02:18 | 18.53463 | 85.20301 | 33907 ft | 497 kts | 310° |
| 2026-05-08 02:19 | 18.58176 | 85.15111 | 33906 ft | 497 kts | 310° |
| 2026-05-08 02:19 | 18.62950 | 85.09848 | 33905 ft | 496 kts | 310° |
| 2026-05-08 02:20 | 18.67646 | 85.04668 | 33907 ft | 496 kts | 310° |
| 2026-05-08 02:20 | 18.72376 | 84.99446 | 33918 ft | 496 kts | 310° |
| 2026-05-08 02:21 | 18.77053 | 84.94294 | 33915 ft | 495 kts | 310° |
| 2026-05-08 02:21 | 18.81830 | 84.89052 | 33914 ft | 495 kts | 310° |
| 2026-05-08 02:22 | 18.86579 | 84.83822 | 33909 ft | 495 kts | 310° |
| 2026-05-08 02:22 | 18.91318 | 84.78567 | 33911 ft | 495 kts | 310° |
| 2026-05-08 02:23 | 18.95194 | 84.74266 | 33909 ft | 495 kts | 310° |
| 2026-05-08 02:23 | 18.99942 | 84.68998 | 33911 ft | 495 kts | 310° |
| 2026-05-08 02:24 | 19.04666 | 84.63753 | 33945 ft | 495 kts | 309° |
| 2026-05-08 02:24 | 19.09400 | 84.58493 | 33946 ft | 494 kts | 309° |
| 2026-05-08 02:25 | 19.14124 | 84.53238 | 33942 ft | 493 kts | 309° |
| 2026-05-08 02:25 | 19.18840 | 84.47988 | 33946 ft | 491 kts | 309° |
| 2026-05-08 02:26 | 19.23546 | 84.42744 | 33929 ft | 491 kts | 309° |
| 2026-05-08 02:26 | 19.28237 | 84.37510 | 33939 ft | 490 kts | 309° |
| 2026-05-08 02:27 | 19.32930 | 84.32272 | 33939 ft | 490 kts | 309° |
| 2026-05-08 02:27 | 19.37614 | 84.27038 | 33945 ft | 490 kts | 309° |
| 2026-05-08 02:28 | 19.42306 | 84.21791 | 33950 ft | 490 kts | 309° |
| 2026-05-08 02:28 | 19.47036 | 84.16637 | 33952 ft | 491 kts | 310° |
| 2026-05-08 02:29 | 19.51849 | 84.11501 | 33943 ft | 491 kts | 310° |
| 2026-05-08 02:29 | 19.56653 | 84.06345 | 33955 ft | 491 kts | 310° |
| 2026-05-08 02:30 | 19.61448 | 84.01179 | 33948 ft | 492 kts | 310° |
| 2026-05-08 02:30 | 19.66247 | 83.96001 | 33947 ft | 492 kts | 310° |
| 2026-05-08 02:31 | 19.71044 | 83.90822 | 33977 ft | 492 kts | 310° |
| 2026-05-08 02:31 | 19.75836 | 83.85643 | 33975 ft | 491 kts | 310° |
| 2026-05-08 02:32 | 19.80621 | 83.80467 | 33955 ft | 491 kts | 310° |
| 2026-05-08 02:32 | 19.85409 | 83.75286 | 33952 ft | 491 kts | 310° |
| 2026-05-08 02:33 | 19.90191 | 83.70104 | 33938 ft | 491 kts | 310° |
| 2026-05-08 02:33 | 19.94969 | 83.64922 | 33944 ft | 491 kts | 310° |
| 2026-05-08 02:34 | 19.99737 | 83.59745 | 33930 ft | 489 kts | 310° |
| 2026-05-08 02:34 | 20.04500 | 83.54574 | 33932 ft | 489 kts | 309° |
| 2026-05-08 02:35 | 20.09259 | 83.49395 | 33904 ft | 490 kts | 309° |
| 2026-05-08 02:35 | 20.14031 | 83.44199 | 33906 ft | 491 kts | 309° |
| 2026-05-08 02:36 | 20.18805 | 83.38998 | 33918 ft | 492 kts | 309° |
| 2026-05-08 02:36 | 20.23589 | 83.33781 | 33919 ft | 492 kts | 309° |
| 2026-05-08 02:37 | 20.28373 | 83.28558 | 33918 ft | 493 kts | 309° |
| 2026-05-08 02:37 | 20.33124 | 83.23367 | 33920 ft | 493 kts | 309° |
| 2026-05-08 02:38 | 20.37901 | 83.18142 | 33930 ft | 493 kts | 309° |
| 2026-05-08 02:38 | 20.42687 | 83.12903 | 33932 ft | 492 kts | 310° |
| 2026-05-08 02:39 | 20.47467 | 83.07666 | 33929 ft | 491 kts | 310° |
| 2026-05-08 02:39 | 20.52229 | 83.02444 | 33921 ft | 490 kts | 310° |
| 2026-05-08 02:40 | 20.56976 | 82.97232 | 33919 ft | 490 kts | 310° |
| 2026-05-08 02:40 | 20.61720 | 82.92014 | 33914 ft | 489 kts | 309° |
| 2026-05-08 02:41 | 20.66445 | 82.86794 | 33938 ft | 489 kts | 310° |
| 2026-05-08 02:41 | 20.71164 | 82.81580 | 33939 ft | 488 kts | 310° |
| 2026-05-08 02:42 | 20.75851 | 82.76398 | 33934 ft | 486 kts | 310° |
| 2026-05-08 02:42 | 20.80562 | 82.71185 | 33930 ft | 485 kts | 310° |
| 2026-05-08 02:43 | 20.85248 | 82.65994 | 33925 ft | 485 kts | 310° |
| 2026-05-08 02:43 | 20.89928 | 82.60806 | 33922 ft | 484 kts | 310° |
| 2026-05-08 02:44 | 20.94620 | 82.55630 | 33920 ft | 485 kts | 310° |
| 2026-05-08 02:44 | 20.99278 | 82.50511 | 33949 ft | 484 kts | 310° |
| 2026-05-08 02:45 | 21.03850 | 82.45476 | 33941 ft | 484 kts | 310° |
| 2026-05-08 02:45 | 21.08612 | 82.40222 | 33944 ft | 483 kts | 310° |
| 2026-05-08 02:46 | 21.13279 | 82.35067 | 33927 ft | 482 kts | 310° |
| 2026-05-08 02:46 | 21.17948 | 82.29907 | 33911 ft | 482 kts | 310° |
| 2026-05-08 02:47 | 21.22619 | 82.24740 | 33921 ft | 482 kts | 310° |
| 2026-05-08 02:47 | 21.27283 | 82.19574 | 33918 ft | 483 kts | 310° |
| 2026-05-08 02:48 | 21.31948 | 82.14405 | 33947 ft | 482 kts | 309° |
| 2026-05-08 02:48 | 21.36604 | 82.09238 | 33948 ft | 481 kts | 309° |
| 2026-05-08 02:49 | 21.41245 | 82.04082 | 33924 ft | 480 kts | 309° |
| 2026-05-08 02:49 | 21.45880 | 81.98932 | 33923 ft | 479 kts | 310° |
| 2026-05-08 02:50 | 21.50592 | 81.93870 | 33914 ft | 479 kts | 310° |
| 2026-05-08 02:50 | 21.55323 | 81.88827 | 33912 ft | 479 kts | 310° |
| 2026-05-08 02:51 | 21.60039 | 81.83772 | 33913 ft | 479 kts | 310° |
| 2026-05-08 02:51 | 21.64745 | 81.78713 | 33943 ft | 478 kts | 310° |
| 2026-05-08 02:52 | 21.69443 | 81.73658 | 33939 ft | 477 kts | 310° |
| 2026-05-08 02:52 | 21.74123 | 81.68616 | 33930 ft | 476 kts | 310° |
| 2026-05-08 02:53 | 21.78797 | 81.63577 | 33919 ft | 475 kts | 310° |
| 2026-05-08 02:53 | 21.83378 | 81.58524 | 33915 ft | 474 kts | 309° |
| 2026-05-08 02:54 | 21.87959 | 81.53420 | 33915 ft | 474 kts | 309° |
| 2026-05-08 02:54 | 21.92555 | 81.48312 | 33916 ft | 475 kts | 309° |
| 2026-05-08 02:55 | 21.99384 | 81.40594 | 33917 ft | 475 kts | 309° |
| 2026-05-08 02:56 | 22.03929 | 81.35424 | 33929 ft | 475 kts | 309° |
| 2026-05-08 02:56 | 22.08481 | 81.30251 | 33935 ft | 476 kts | 309° |
| 2026-05-08 02:57 | 22.13057 | 81.25088 | 33931 ft | 476 kts | 309° |
| 2026-05-08 02:57 | 22.17622 | 81.20015 | 33939 ft | 477 kts | 309° |
| 2026-05-08 02:58 | 22.22237 | 81.14875 | 33961 ft | 477 kts | 309° |
| 2026-05-08 02:58 | 22.26845 | 81.09726 | 33956 ft | 476 kts | 309° |
| 2026-05-08 02:59 | 22.31434 | 81.04591 | 33952 ft | 475 kts | 309° |
| 2026-05-08 02:59 | 22.35989 | 80.99490 | 33941 ft | 474 kts | 309° |
| 2026-05-08 03:00 | 22.40563 | 80.94362 | 33934 ft | 473 kts | 309° |
| 2026-05-08 03:00 | 22.45129 | 80.89237 | 33912 ft | 473 kts | 309° |
| 2026-05-08 03:01 | 22.49684 | 80.84120 | 33909 ft | 473 kts | 309° |
| 2026-05-08 03:01 | 22.54245 | 80.78992 | 33921 ft | 473 kts | 309° |
| 2026-05-08 03:02 | 22.58800 | 80.73865 | 33917 ft | 473 kts | 309° |
| 2026-05-08 03:02 | 22.63348 | 80.68739 | 33915 ft | 472 kts | 309° |
| 2026-05-08 03:03 | 22.67898 | 80.63607 | 33910 ft | 472 kts | 309° |
| 2026-05-08 03:03 | 22.72446 | 80.58472 | 33906 ft | 472 kts | 309° |
| 2026-05-08 03:04 | 22.76994 | 80.53331 | 33909 ft | 472 kts | 309° |
| 2026-05-08 03:04 | 22.81540 | 80.48188 | 33910 ft | 472 kts | 309° |
| 2026-05-08 03:05 | 22.86078 | 80.43049 | 33941 ft | 471 kts | 309° |
| 2026-05-08 03:05 | 22.90596 | 80.37927 | 33927 ft | 469 kts | 309° |
| 2026-05-08 03:06 | 22.95096 | 80.32820 | 33910 ft | 468 kts | 309° |
| 2026-05-08 03:06 | 22.99582 | 80.27723 | 33906 ft | 466 kts | 309° |
| 2026-05-08 03:07 | 23.04063 | 80.22627 | 33910 ft | 466 kts | 309° |
| 2026-05-08 03:07 | 23.08532 | 80.17539 | 33914 ft | 466 kts | 309° |
| 2026-05-08 03:08 | 23.12954 | 80.12498 | 33965 ft | 465 kts | 309° |
| 2026-05-08 03:08 | 23.17377 | 80.07349 | 33939 ft | 462 kts | 306° |
| 2026-05-08 03:09 | 23.21018 | 80.01666 | 33887 ft | 456 kts | 297° |
| 2026-05-08 03:09 | 23.24261 | 79.95728 | 33883 ft | 457 kts | 298° |
| 2026-05-08 03:10 | 23.27526 | 79.89812 | 33884 ft | 457 kts | 297° |
| 2026-05-08 03:10 | 23.30828 | 79.83801 | 33897 ft | 470 kts | 297° |
| 2026-05-08 03:11 | 23.34223 | 79.77607 | 33901 ft | 483 kts | 298° |
| 2026-05-08 03:11 | 23.37710 | 79.71240 | 33893 ft | 496 kts | 298° |
| 2026-05-08 03:12 | 23.41280 | 79.64713 | 33928 ft | 507 kts | 298° |
| 2026-05-08 03:12 | 23.43096 | 79.61410 | 34150 ft | 505 kts | 298° |
| 2026-05-08 03:12 | 23.44948 | 79.58239 | 35175 ft | 488 kts | 300° |
| 2026-05-08 03:12 | 23.46830 | 79.55208 | 35890 ft | 480 kts | 301° |
| 2026-05-08 03:13 | 23.48770 | 79.52271 | 36331 ft | 477 kts | 303° |
| 2026-05-08 03:13 | 23.50864 | 79.49476 | 36746 ft | 477 kts | 310° |
| 2026-05-08 03:13 | 23.53492 | 79.47269 | 37333 ft | 483 kts | 329° |
| 2026-05-08 03:13 | 23.56739 | 79.46301 | 37894 ft | 494 kts | 352° |
| 2026-05-08 03:14 | 23.59077 | 79.46477 | 38263 ft | 503 kts | 8° |
| 2026-05-08 03:14 | 23.62333 | 79.47832 | 38734 ft | 508 kts | 19° |
| 2026-05-08 03:14 | 23.65615 | 79.49184 | 38800 ft | 502 kts | 8° |
| 2026-05-08 03:15 | 23.72456 | 79.49812 | 38822 ft | 490 kts | 347° |
| 2026-05-08 03:15 | 23.75752 | 79.49072 | 38800 ft | 476 kts | 336° |
| 2026-05-08 03:15 | 23.78748 | 79.47687 | 38801 ft | 463 kts | 324° |
| 2026-05-08 03:16 | 23.83531 | 79.43202 | 38793 ft | 451 kts | 302° |
| 2026-05-08 03:16 | 23.85141 | 79.40290 | 38803 ft | 446 kts | 291° |
| 2026-05-08 03:16 | 23.86132 | 79.37103 | 38803 ft | 443 kts | 280° |
| 2026-05-08 03:16 | 23.86469 | 79.33770 | 38802 ft | 442 kts | 269° |
| 2026-05-08 03:17 | 23.86150 | 79.30430 | 38801 ft | 443 kts | 260° |
| 2026-05-08 03:17 | 23.84728 | 79.23903 | 38810 ft | 445 kts | 257° |
| 2026-05-08 03:18 | 23.83187 | 79.17361 | 38816 ft | 445 kts | 257° |
| 2026-05-08 03:18 | 23.81638 | 79.10809 | 38819 ft | 445 kts | 257° |
| 2026-05-08 03:19 | 23.80089 | 79.04262 | 38821 ft | 445 kts | 257° |
| 2026-05-08 03:19 | 23.79245 | 78.97662 | 38823 ft | 442 kts | 275° |
| 2026-05-08 03:19 | 23.79764 | 78.94348 | 38818 ft | 443 kts | 286° |
| 2026-05-08 03:20 | 23.80923 | 78.91227 | 38818 ft | 446 kts | 295° |
| 2026-05-08 03:20 | 23.84122 | 78.85406 | 38813 ft | 448 kts | 299° |
| 2026-05-08 03:21 | 23.87377 | 78.79613 | 38812 ft | 447 kts | 298° |
| 2026-05-08 03:21 | 23.90523 | 78.73808 | 38817 ft | 447 kts | 297° |
| 2026-05-08 03:22 | 23.93668 | 78.67941 | 38819 ft | 447 kts | 297° |
| 2026-05-08 03:22 | 23.96812 | 78.62065 | 38830 ft | 447 kts | 297° |
| 2026-05-08 03:23 | 23.99954 | 78.56193 | 38820 ft | 447 kts | 297° |
| 2026-05-08 03:23 | 24.03117 | 78.50341 | 38812 ft | 447 kts | 298° |
| 2026-05-08 03:24 | 24.06329 | 78.44524 | 38810 ft | 446 kts | 298° |
| 2026-05-08 03:24 | 24.09527 | 78.38710 | 38798 ft | 445 kts | 298° |
| 2026-05-08 03:25 | 24.12715 | 78.32894 | 38798 ft | 445 kts | 298° |
| 2026-05-08 03:25 | 24.15892 | 78.27088 | 38796 ft | 445 kts | 298° |
| 2026-05-08 03:26 | 24.19065 | 78.21281 | 38787 ft | 444 kts | 298° |
| 2026-05-08 03:26 | 24.22236 | 78.15474 | 38787 ft | 444 kts | 298° |
| 2026-05-08 03:27 | 24.25391 | 78.09686 | 38809 ft | 445 kts | 298° |
| 2026-05-08 03:27 | 24.28559 | 78.03870 | 38807 ft | 444 kts | 298° |
| 2026-05-08 03:28 | 24.31720 | 77.98060 | 38799 ft | 444 kts | 298° |
| 2026-05-08 03:28 | 24.34881 | 77.92243 | 38794 ft | 444 kts | 298° |
| 2026-05-08 03:29 | 24.38038 | 77.86425 | 38794 ft | 444 kts | 298° |
| 2026-05-08 03:29 | 24.41196 | 77.80598 | 38799 ft | 444 kts | 298° |
| 2026-05-08 03:30 | 24.45935 | 77.71841 | 38805 ft | 445 kts | 298° |
| 2026-05-08 03:31 | 24.52430 | 77.59815 | 38818 ft | 447 kts | 298° |
| 2026-05-08 03:32 | 24.57178 | 77.51004 | 38805 ft | 447 kts | 298° |
| 2026-05-08 03:32 | 24.60251 | 77.45295 | 38809 ft | 447 kts | 298° |
| 2026-05-08 03:33 | 24.63416 | 77.39405 | 38814 ft | 448 kts | 298° |
| 2026-05-08 03:33 | 24.66580 | 77.33512 | 38808 ft | 448 kts | 298° |
| 2026-05-08 03:34 | 24.69746 | 77.27608 | 38809 ft | 448 kts | 298° |
| 2026-05-08 03:34 | 24.72937 | 77.21729 | 38788 ft | 448 kts | 299° |
| 2026-05-08 03:35 | 24.76160 | 77.15859 | 38792 ft | 448 kts | 299° |
| 2026-05-08 03:35 | 24.79350 | 77.10027 | 38795 ft | 449 kts | 299° |
| 2026-05-08 03:36 | 24.82538 | 77.04182 | 38789 ft | 449 kts | 298° |
| 2026-05-08 03:36 | 24.85751 | 76.98283 | 38795 ft | 449 kts | 298° |
| 2026-05-08 03:37 | 24.91747 | 76.87254 | 38794 ft | 450 kts | 298° |
| 2026-05-08 03:38 | 24.94934 | 76.81383 | 38797 ft | 450 kts | 299° |
| 2026-05-08 03:38 | 24.98137 | 76.75475 | 38791 ft | 450 kts | 298° |
| 2026-05-08 03:39 | 25.01589 | 76.69711 | 38791 ft | 452 kts | 306° |
| 2026-05-08 03:39 | 25.05442 | 76.64231 | 38546 ft | 445 kts | 305° |
| 2026-05-08 03:39 | 25.07316 | 76.61538 | 37999 ft | 444 kts | 305° |
| 2026-05-08 03:40 | 25.09164 | 76.58876 | 37412 ft | 443 kts | 305° |
| 2026-05-08 03:40 | 25.11038 | 76.56177 | 36786 ft | 443 kts | 305° |
| 2026-05-08 03:40 | 25.12913 | 76.53479 | 36160 ft | 442 kts | 306° |
| 2026-05-08 03:40 | 25.14783 | 76.50786 | 35548 ft | 442 kts | 306° |
| 2026-05-08 03:41 | 25.16645 | 76.48104 | 34986 ft | 440 kts | 306° |
| 2026-05-08 03:41 | 25.18506 | 76.45423 | 34389 ft | 439 kts | 306° |
| 2026-05-08 03:41 | 25.20352 | 76.42762 | 34035 ft | 435 kts | 306° |
| 2026-05-08 03:41 | 25.22200 | 76.40097 | 33913 ft | 438 kts | 306° |
| 2026-05-08 03:42 | 25.24064 | 76.37404 | 33899 ft | 444 kts | 306° |
| 2026-05-08 03:42 | 25.27818 | 76.31982 | 33898 ft | 444 kts | 306° |
| 2026-05-08 03:43 | 25.31567 | 76.26561 | 33912 ft | 446 kts | 306° |
| 2026-05-08 03:43 | 25.35326 | 76.21117 | 33897 ft | 447 kts | 306° |
| 2026-05-08 03:44 | 25.39098 | 76.15649 | 33896 ft | 447 kts | 306° |
| 2026-05-08 03:44 | 25.42858 | 76.10192 | 33902 ft | 446 kts | 306° |
| 2026-05-08 03:45 | 25.46616 | 76.04731 | 33897 ft | 446 kts | 306° |
| 2026-05-08 03:45 | 25.50371 | 75.99269 | 33892 ft | 445 kts | 306° |
| 2026-05-08 03:46 | 25.54114 | 75.93818 | 33893 ft | 445 kts | 306° |
| 2026-05-08 03:46 | 25.57856 | 75.88357 | 33910 ft | 445 kts | 306° |
| 2026-05-08 03:47 | 25.61595 | 75.82900 | 33902 ft | 445 kts | 306° |
| 2026-05-08 03:47 | 25.65341 | 75.77428 | 33878 ft | 445 kts | 306° |
| 2026-05-08 03:48 | 25.69075 | 75.71966 | 33895 ft | 445 kts | 306° |
| 2026-05-08 03:48 | 25.72807 | 75.66498 | 33894 ft | 445 kts | 306° |
| 2026-05-08 03:49 | 25.76541 | 75.61022 | 33894 ft | 445 kts | 306° |
| 2026-05-08 03:49 | 25.80269 | 75.55548 | 33893 ft | 445 kts | 306° |
| 2026-05-08 03:50 | 25.83996 | 75.50067 | 33911 ft | 445 kts | 306° |
| 2026-05-08 03:50 | 25.87716 | 75.44593 | 33893 ft | 444 kts | 306° |
| 2026-05-08 03:51 | 25.91200 | 75.38938 | 33879 ft | 443 kts | 303° |
| 2026-05-08 03:51 | 25.94667 | 75.33280 | 33903 ft | 442 kts | 303° |
| 2026-05-08 03:52 | 25.98091 | 75.27683 | 33899 ft | 442 kts | 303° |
| 2026-05-08 03:52 | 26.01552 | 75.22008 | 34109 ft | 444 kts | 303° |
| 2026-05-08 03:52 | 26.03279 | 75.19173 | 34425 ft | 444 kts | 303° |
| 2026-05-08 03:53 | 26.05009 | 75.16333 | 34734 ft | 443 kts | 303° |
| 2026-05-08 03:53 | 26.06737 | 75.13493 | 35035 ft | 443 kts | 303° |
| 2026-05-08 03:53 | 26.08464 | 75.10652 | 35332 ft | 443 kts | 303° |
| 2026-05-08 03:53 | 26.10188 | 75.07815 | 35662 ft | 442 kts | 303° |
| 2026-05-08 03:54 | 26.11907 | 75.04985 | 35836 ft | 441 kts | 303° |
| 2026-05-08 03:54 | 26.15322 | 74.99358 | 35877 ft | 438 kts | 303° |
| 2026-05-08 03:55 | 26.18551 | 74.93608 | 35879 ft | 438 kts | 298° |
| 2026-05-08 03:55 | 26.21484 | 74.87652 | 35876 ft | 438 kts | 299° |
| 2026-05-08 03:56 | 26.24433 | 74.81712 | 35876 ft | 438 kts | 299° |
| 2026-05-08 03:56 | 26.27381 | 74.75759 | 35873 ft | 438 kts | 299° |
| 2026-05-08 03:57 | 26.30322 | 74.69806 | 35874 ft | 439 kts | 299° |
| 2026-05-08 03:57 | 26.33256 | 74.63857 | 35873 ft | 439 kts | 299° |
| 2026-05-08 03:58 | 26.36199 | 74.57884 | 35884 ft | 439 kts | 299° |
| 2026-05-08 03:58 | 26.39133 | 74.51922 | 35879 ft | 439 kts | 299° |
| 2026-05-08 03:59 | 26.42068 | 74.45949 | 35872 ft | 439 kts | 299° |
| 2026-05-08 03:59 | 26.44923 | 74.40129 | 35870 ft | 438 kts | 299° |
| 2026-05-08 04:00 | 26.47845 | 74.34167 | 35853 ft | 437 kts | 299° |
| 2026-05-08 04:00 | 26.50778 | 74.28174 | 35865 ft | 437 kts | 299° |
| 2026-05-08 04:01 | 26.53668 | 74.22260 | 35855 ft | 437 kts | 299° |
| 2026-05-08 04:01 | 26.56581 | 74.16306 | 35849 ft | 437 kts | 299° |
| 2026-05-08 04:02 | 26.59533 | 74.10375 | 35848 ft | 437 kts | 299° |
| 2026-05-08 04:02 | 26.62484 | 74.04441 | 35844 ft | 437 kts | 299° |
| 2026-05-08 04:03 | 26.65435 | 73.98487 | 35845 ft | 437 kts | 299° |
| 2026-05-08 04:03 | 26.69832 | 73.89595 | 35831 ft | 436 kts | 299° |
| 2026-05-08 04:04 | 26.72769 | 73.83646 | 35830 ft | 436 kts | 299° |
| 2026-05-08 04:04 | 26.75695 | 73.77711 | 35828 ft | 436 kts | 299° |
| 2026-05-08 04:05 | 26.78623 | 73.71763 | 35824 ft | 436 kts | 299° |
| 2026-05-08 04:05 | 26.81549 | 73.65812 | 35851 ft | 436 kts | 299° |
| 2026-05-08 04:06 | 26.84468 | 73.59866 | 35826 ft | 436 kts | 299° |
| 2026-05-08 04:06 | 26.87389 | 73.53909 | 35822 ft | 436 kts | 299° |
| 2026-05-08 04:07 | 26.90286 | 73.47993 | 35816 ft | 436 kts | 299° |
| 2026-05-08 04:07 | 26.93194 | 73.42046 | 35816 ft | 435 kts | 299° |
| 2026-05-08 04:08 | 26.96105 | 73.36086 | 35808 ft | 435 kts | 299° |
| 2026-05-08 04:08 | 26.98978 | 73.30114 | 35807 ft | 435 kts | 299° |
| 2026-05-08 04:09 | 27.01836 | 73.24140 | 35806 ft | 435 kts | 299° |
| 2026-05-08 04:09 | 27.04696 | 73.18169 | 35809 ft | 435 kts | 299° |
| 2026-05-08 04:10 | 27.07554 | 73.12193 | 35814 ft | 435 kts | 299° |
| 2026-05-08 04:10 | 27.10413 | 73.06210 | 35806 ft | 435 kts | 299° |
| 2026-05-08 04:11 | 27.13266 | 73.00231 | 35804 ft | 435 kts | 299° |
| 2026-05-08 04:11 | 27.16122 | 72.94235 | 35796 ft | 434 kts | 299° |
| 2026-05-08 04:12 | 27.18962 | 72.88266 | 35801 ft | 434 kts | 299° |
| 2026-05-08 04:12 | 27.21786 | 72.82322 | 35802 ft | 434 kts | 299° |
| 2026-05-08 04:13 | 27.24641 | 72.76302 | 35799 ft | 433 kts | 299° |
| 2026-05-08 04:13 | 27.27452 | 72.70369 | 35798 ft | 433 kts | 299° |
| 2026-05-08 04:14 | 27.30284 | 72.64383 | 35799 ft | 433 kts | 299° |
| 2026-05-08 04:14 | 27.33112 | 72.58397 | 35796 ft | 433 kts | 299° |
| 2026-05-08 04:15 | 27.35918 | 72.52449 | 35803 ft | 433 kts | 299° |
| 2026-05-08 04:15 | 27.38715 | 72.46511 | 35801 ft | 433 kts | 299° |
| 2026-05-08 04:16 | 27.41530 | 72.40527 | 35799 ft | 433 kts | 299° |
| 2026-05-08 04:16 | 27.44347 | 72.34531 | 35799 ft | 433 kts | 299° |
| 2026-05-08 04:17 | 27.47156 | 72.28542 | 35800 ft | 433 kts | 299° |
| 2026-05-08 04:17 | 27.49962 | 72.22553 | 35796 ft | 432 kts | 299° |
| 2026-05-08 04:18 | 27.52765 | 72.16558 | 35801 ft | 433 kts | 299° |
| 2026-05-08 04:18 | 27.55570 | 72.10554 | 35804 ft | 433 kts | 299° |
| 2026-05-08 04:19 | 27.58372 | 72.04547 | 35804 ft | 432 kts | 299° |
| 2026-05-08 04:19 | 27.61166 | 71.98547 | 35796 ft | 432 kts | 299° |
| 2026-05-08 04:20 | 27.63957 | 71.92547 | 35794 ft | 432 kts | 299° |
| 2026-05-08 04:20 | 27.66745 | 71.86543 | 35793 ft | 431 kts | 299° |
| 2026-05-08 04:21 | 27.69521 | 71.80558 | 35789 ft | 431 kts | 299° |
| 2026-05-08 04:21 | 27.72298 | 71.74561 | 35809 ft | 431 kts | 299° |
| 2026-05-08 04:22 | 27.75075 | 71.68555 | 35790 ft | 432 kts | 299° |
| 2026-05-08 04:22 | 27.77380 | 71.63564 | 35788 ft | 432 kts | 299° |
| 2026-05-08 04:23 | 27.80154 | 71.57551 | 35788 ft | 432 kts | 299° |
| 2026-05-08 04:23 | 27.82927 | 71.51529 | 35791 ft | 431 kts | 298° |
| 2026-05-08 04:24 | 27.85690 | 71.45522 | 35787 ft | 431 kts | 298° |
| 2026-05-08 04:24 | 27.88433 | 71.39493 | 35788 ft | 431 kts | 297° |
| 2026-05-08 04:25 | 27.91052 | 71.33433 | 35787 ft | 431 kts | 297° |
| 2026-05-08 04:25 | 27.93689 | 71.27334 | 35786 ft | 431 kts | 297° |
| 2026-05-08 04:26 | 27.96337 | 71.21236 | 35785 ft | 432 kts | 297° |
| 2026-05-08 04:26 | 27.98984 | 71.15139 | 35786 ft | 432 kts | 297° |
| 2026-05-08 04:27 | 28.01626 | 71.09043 | 35783 ft | 432 kts | 297° |
| 2026-05-08 04:27 | 28.04253 | 71.02971 | 35781 ft | 432 kts | 297° |
| 2026-05-08 04:28 | 28.06889 | 70.96872 | 35781 ft | 432 kts | 297° |
| 2026-05-08 04:28 | 28.09525 | 70.90761 | 35780 ft | 432 kts | 297° |
| 2026-05-08 04:29 | 28.12158 | 70.84648 | 35777 ft | 431 kts | 297° |
| 2026-05-08 04:29 | 28.14790 | 70.78527 | 35780 ft | 432 kts | 297° |
| 2026-05-08 04:30 | 28.17419 | 70.72407 | 35785 ft | 432 kts | 297° |
| 2026-05-08 04:30 | 28.20044 | 70.66285 | 35786 ft | 432 kts | 297° |
| 2026-05-08 04:31 | 28.22667 | 70.60158 | 35781 ft | 432 kts | 297° |
| 2026-05-08 04:31 | 28.25291 | 70.54019 | 35781 ft | 432 kts | 297° |
| 2026-05-08 04:32 | 28.27904 | 70.47896 | 35780 ft | 432 kts | 297° |
| 2026-05-08 04:32 | 28.30515 | 70.41769 | 35784 ft | 431 kts | 297° |
| 2026-05-08 04:33 | 28.33127 | 70.35633 | 35782 ft | 431 kts | 297° |
| 2026-05-08 04:33 | 28.36579 | 70.30130 | 35795 ft | 430 kts | 315° |
| 2026-05-08 04:34 | 28.41536 | 70.26280 | 35783 ft | 437 kts | 333° |
| 2026-05-08 04:34 | 28.47406 | 70.24305 | 35784 ft | 443 kts | 341° |
| 2026-05-08 04:35 | 28.53394 | 70.22620 | 35789 ft | 443 kts | 341° |
| 2026-05-08 04:35 | 28.59377 | 70.20923 | 35790 ft | 443 kts | 341° |
| 2026-05-08 04:36 | 28.65370 | 70.19226 | 35793 ft | 443 kts | 341° |
| 2026-05-08 04:36 | 28.71356 | 70.17530 | 35799 ft | 444 kts | 341° |
| 2026-05-08 04:37 | 28.77351 | 70.15831 | 35800 ft | 444 kts | 341° |
| 2026-05-08 04:37 | 28.83326 | 70.14135 | 35801 ft | 444 kts | 341° |
| 2026-05-08 04:38 | 28.89328 | 70.12430 | 35827 ft | 443 kts | 341° |
| 2026-05-08 04:38 | 28.95278 | 70.10737 | 35809 ft | 443 kts | 341° |
| 2026-05-08 04:39 | 29.01245 | 70.09039 | 35807 ft | 443 kts | 341° |
| 2026-05-08 04:39 | 29.07229 | 70.07333 | 35809 ft | 443 kts | 341° |
| 2026-05-08 04:40 | 29.13205 | 70.05627 | 35820 ft | 443 kts | 341° |
| 2026-05-08 04:40 | 29.19179 | 70.03920 | 35818 ft | 443 kts | 341° |
| 2026-05-08 04:41 | 29.25158 | 70.02209 | 35820 ft | 442 kts | 341° |
| 2026-05-08 04:41 | 29.31128 | 70.00499 | 35831 ft | 442 kts | 341° |
| 2026-05-08 04:42 | 29.37096 | 69.98788 | 35831 ft | 442 kts | 341° |
| 2026-05-08 04:42 | 29.43068 | 69.97073 | 35848 ft | 442 kts | 341° |
| 2026-05-08 04:43 | 29.49036 | 69.95357 | 35845 ft | 442 kts | 341° |
| 2026-05-08 04:43 | 29.54991 | 69.93643 | 35843 ft | 442 kts | 341° |
| 2026-05-08 04:44 | 29.60965 | 69.91921 | 35851 ft | 442 kts | 341° |
| 2026-05-08 04:44 | 29.66931 | 69.90202 | 35861 ft | 442 kts | 341° |
| 2026-05-08 04:45 | 29.72896 | 69.88479 | 35881 ft | 442 kts | 341° |
| 2026-05-08 04:45 | 29.78852 | 69.86756 | 35880 ft | 442 kts | 341° |
| 2026-05-08 04:46 | 29.84812 | 69.85030 | 35881 ft | 442 kts | 341° |
| 2026-05-08 04:46 | 29.90737 | 69.83310 | 35878 ft | 442 kts | 341° |
| 2026-05-08 04:47 | 29.96750 | 69.81564 | 35906 ft | 443 kts | 341° |
| 2026-05-08 04:47 | 30.02692 | 69.79839 | 35906 ft | 443 kts | 341° |
| 2026-05-08 04:48 | 30.08644 | 69.78107 | 35915 ft | 443 kts | 341° |
| 2026-05-08 04:48 | 30.14613 | 69.76368 | 35924 ft | 443 kts | 341° |
| 2026-05-08 04:49 | 30.20591 | 69.74624 | 35934 ft | 443 kts | 341° |
| 2026-05-08 04:49 | 30.26559 | 69.72892 | 35924 ft | 443 kts | 342° |
| 2026-05-08 04:50 | 30.32601 | 69.71419 | 35919 ft | 443 kts | 343° |
| 2026-05-08 04:50 | 30.38638 | 69.69988 | 35915 ft | 443 kts | 343° |
| 2026-05-08 04:51 | 30.44659 | 69.68523 | 35939 ft | 442 kts | 343° |
| 2026-05-08 04:51 | 30.50683 | 69.67044 | 35915 ft | 442 kts | 343° |
| 2026-05-08 04:52 | 30.56701 | 69.65564 | 35921 ft | 442 kts | 343° |
| 2026-05-08 04:52 | 30.62721 | 69.64082 | 35921 ft | 442 kts | 343° |
| 2026-05-08 04:53 | 30.68741 | 69.62598 | 35926 ft | 443 kts | 343° |
| 2026-05-08 04:53 | 30.74773 | 69.61109 | 35940 ft | 443 kts | 343° |
| 2026-05-08 04:54 | 30.80802 | 69.59619 | 35950 ft | 443 kts | 343° |
| 2026-05-08 04:54 | 30.86837 | 69.58126 | 35955 ft | 443 kts | 343° |
| 2026-05-08 04:55 | 30.92821 | 69.56644 | 35952 ft | 443 kts | 343° |
| 2026-05-08 04:55 | 30.98841 | 69.55151 | 35963 ft | 443 kts | 343° |
| 2026-05-08 04:56 | 31.04867 | 69.53654 | 35962 ft | 443 kts | 343° |
| 2026-05-08 04:56 | 31.10893 | 69.52156 | 35949 ft | 442 kts | 343° |
| 2026-05-08 04:57 | 31.16904 | 69.50659 | 35951 ft | 442 kts | 343° |
| 2026-05-08 04:57 | 31.22926 | 69.49157 | 35959 ft | 442 kts | 343° |
| 2026-05-08 04:58 | 31.28955 | 69.47652 | 35949 ft | 443 kts | 343° |
| 2026-05-08 04:58 | 31.34655 | 69.45184 | 35952 ft | 434 kts | 326° |
| 2026-05-08 04:59 | 31.39223 | 69.40651 | 35952 ft | 432 kts | 309° |
| 2026-05-08 04:59 | 31.42937 | 69.35139 | 35956 ft | 432 kts | 309° |
| 2026-05-08 05:00 | 31.46686 | 69.29626 | 35955 ft | 433 kts | 309° |
| 2026-05-08 05:00 | 31.50433 | 69.24095 | 35976 ft | 434 kts | 309° |
| 2026-05-08 05:01 | 31.54181 | 69.18544 | 35945 ft | 435 kts | 308° |
| 2026-05-08 05:01 | 31.57904 | 69.13021 | 35994 ft | 435 kts | 308° |
| 2026-05-08 05:02 | 31.61645 | 69.07471 | 35981 ft | 433 kts | 308° |
| 2026-05-08 05:02 | 31.65379 | 69.01922 | 35985 ft | 433 kts | 308° |
| 2026-05-08 05:03 | 31.69152 | 68.96432 | 35965 ft | 432 kts | 310° |
| 2026-05-08 05:03 | 31.73042 | 68.91060 | 35968 ft | 432 kts | 310° |
| 2026-05-08 05:04 | 31.76923 | 68.85666 | 35968 ft | 432 kts | 310° |
| 2026-05-08 05:04 | 31.80785 | 68.80258 | 35985 ft | 432 kts | 310° |
| 2026-05-08 05:05 | 31.84641 | 68.74844 | 35985 ft | 431 kts | 310° |
| 2026-05-08 05:05 | 31.88493 | 68.69429 | 35998 ft | 432 kts | 310° |
| 2026-05-08 05:06 | 31.92342 | 68.64011 | 36001 ft | 431 kts | 310° |
| 2026-05-08 05:06 | 31.96187 | 68.58590 | 36002 ft | 431 kts | 310° |
| 2026-05-08 05:07 | 32.00032 | 68.53162 | 36001 ft | 431 kts | 309° |
| 2026-05-08 05:07 | 32.03866 | 68.47741 | 36011 ft | 430 kts | 309° |
| 2026-05-08 05:08 | 32.07694 | 68.42320 | 36014 ft | 431 kts | 309° |
| 2026-05-08 05:08 | 32.11524 | 68.36889 | 36019 ft | 430 kts | 309° |
| 2026-05-08 05:09 | 32.15349 | 68.31458 | 36024 ft | 430 kts | 309° |
| 2026-05-08 05:09 | 32.19168 | 68.26028 | 36027 ft | 430 kts | 309° |
| 2026-05-08 05:10 | 32.24869 | 68.17908 | 36011 ft | 430 kts | 309° |
| 2026-05-08 05:11 | 32.28683 | 68.12464 | 36016 ft | 431 kts | 309° |
| 2026-05-08 05:11 | 32.32503 | 68.07003 | 36026 ft | 432 kts | 309° |
| 2026-05-08 05:12 | 32.36332 | 68.01523 | 36031 ft | 433 kts | 309° |
| 2026-05-08 05:12 | 32.40167 | 67.96026 | 36042 ft | 433 kts | 309° |
| 2026-05-08 05:13 | 32.44003 | 67.90518 | 36040 ft | 433 kts | 309° |
| 2026-05-08 05:13 | 32.47833 | 67.85013 | 36029 ft | 434 kts | 309° |
| 2026-05-08 05:14 | 32.51021 | 67.80431 | 36034 ft | 433 kts | 310° |
| 2026-05-08 05:14 | 32.55018 | 67.75081 | 36031 ft | 433 kts | 311° |
| 2026-05-08 05:15 | 32.59043 | 67.69771 | 36028 ft | 433 kts | 311° |
| 2026-05-08 05:15 | 32.63041 | 67.64435 | 36029 ft | 433 kts | 311° |
| 2026-05-08 05:16 | 32.67035 | 67.59081 | 36043 ft | 433 kts | 311° |
| 2026-05-08 05:16 | 32.71025 | 67.53723 | 36020 ft | 433 kts | 311° |
| 2026-05-08 05:17 | 32.74997 | 67.48380 | 36033 ft | 431 kts | 311° |
| 2026-05-08 05:17 | 32.78945 | 67.43040 | 36027 ft | 430 kts | 310° |
| 2026-05-08 05:18 | 32.82757 | 67.37573 | 36034 ft | 430 kts | 309° |
| 2026-05-08 05:18 | 32.86558 | 67.32096 | 36061 ft | 429 kts | 309° |
| 2026-05-08 05:19 | 32.90379 | 67.26620 | 36079 ft | 430 kts | 309° |
| 2026-05-08 05:19 | 32.94201 | 67.21138 | 36081 ft | 431 kts | 309° |
| 2026-05-08 05:20 | 32.98024 | 67.15650 | 36123 ft | 430 kts | 309° |
| 2026-05-08 05:20 | 33.01763 | 67.10275 | 36119 ft | 429 kts | 309° |
| 2026-05-08 05:21 | 33.05542 | 67.04837 | 36131 ft | 429 kts | 309° |
| 2026-05-08 05:21 | 33.09343 | 66.99358 | 36135 ft | 429 kts | 309° |
| 2026-05-08 05:22 | 33.13141 | 66.93874 | 36145 ft | 429 kts | 309° |
| 2026-05-08 05:22 | 33.16944 | 66.88375 | 36118 ft | 430 kts | 309° |
| 2026-05-08 05:23 | 33.20746 | 66.82870 | 36129 ft | 430 kts | 309° |
| 2026-05-08 05:23 | 33.24543 | 66.77360 | 36130 ft | 429 kts | 309° |
| 2026-05-08 05:24 | 33.28345 | 66.71839 | 36101 ft | 431 kts | 309° |
| 2026-05-08 05:24 | 33.32152 | 66.66306 | 36126 ft | 431 kts | 309° |
| 2026-05-08 05:25 | 33.35959 | 66.60761 | 36110 ft | 432 kts | 309° |
| 2026-05-08 05:25 | 33.39767 | 66.55204 | 36094 ft | 432 kts | 308° |
| 2026-05-08 05:26 | 33.43576 | 66.49635 | 36110 ft | 432 kts | 308° |
| 2026-05-08 05:26 | 33.47386 | 66.44059 | 36092 ft | 433 kts | 308° |
| 2026-05-08 05:27 | 33.51191 | 66.38453 | 36097 ft | 433 kts | 308° |
| 2026-05-08 05:27 | 33.54986 | 66.32855 | 36089 ft | 433 kts | 308° |
| 2026-05-08 05:28 | 33.58781 | 66.27248 | 36102 ft | 433 kts | 308° |
| 2026-05-08 05:28 | 33.62568 | 66.21647 | 36109 ft | 432 kts | 308° |
| 2026-05-08 05:29 | 33.66359 | 66.16030 | 36116 ft | 433 kts | 308° |
| 2026-05-08 05:29 | 33.70133 | 66.10430 | 36113 ft | 432 kts | 308° |
| 2026-05-08 05:30 | 33.73901 | 66.04830 | 36120 ft | 431 kts | 308° |
| 2026-05-08 05:30 | 33.77528 | 65.99432 | 36105 ft | 431 kts | 308° |
| 2026-05-08 05:31 | 33.81273 | 65.93850 | 36144 ft | 432 kts | 308° |
| 2026-05-08 05:31 | 33.85075 | 65.88174 | 36138 ft | 433 kts | 308° |
| 2026-05-08 05:32 | 33.88830 | 65.82558 | 36134 ft | 434 kts | 307° |
| 2026-05-08 05:32 | 33.92612 | 65.76894 | 36142 ft | 434 kts | 307° |
| 2026-05-08 05:33 | 33.96389 | 65.71227 | 36132 ft | 434 kts | 307° |
| 2026-05-08 05:33 | 34.00164 | 65.65558 | 36146 ft | 434 kts | 307° |
| 2026-05-08 05:34 | 34.03940 | 65.59876 | 36156 ft | 434 kts | 307° |
| 2026-05-08 05:34 | 34.07715 | 65.54187 | 36172 ft | 433 kts | 307° |
| 2026-05-08 05:35 | 34.11478 | 65.48520 | 36162 ft | 433 kts | 307° |
| 2026-05-08 05:35 | 34.15245 | 65.42842 | 36165 ft | 433 kts | 307° |
| 2026-05-08 05:36 | 34.19006 | 65.37163 | 36163 ft | 433 kts | 307° |
| 2026-05-08 05:36 | 34.22769 | 65.31471 | 36170 ft | 434 kts | 307° |
| 2026-05-08 05:37 | 34.26530 | 65.25775 | 36165 ft | 434 kts | 307° |
| 2026-05-08 05:37 | 34.30295 | 65.20062 | 36163 ft | 435 kts | 307° |
| 2026-05-08 05:38 | 34.34062 | 65.14336 | 36171 ft | 435 kts | 307° |
| 2026-05-08 05:38 | 34.37830 | 65.08599 | 36167 ft | 436 kts | 307° |
| 2026-05-08 05:39 | 34.41612 | 65.02837 | 36171 ft | 437 kts | 307° |
| 2026-05-08 05:39 | 34.45385 | 64.97074 | 36156 ft | 437 kts | 306° |
| 2026-05-08 05:40 | 34.49163 | 64.91295 | 36169 ft | 437 kts | 306° |
| 2026-05-08 05:40 | 34.52937 | 64.85504 | 36180 ft | 438 kts | 306° |
| 2026-05-08 05:41 | 34.56711 | 64.79694 | 36164 ft | 439 kts | 306° |
| 2026-05-08 05:41 | 34.60486 | 64.73877 | 36166 ft | 439 kts | 306° |
| 2026-05-08 05:42 | 34.64268 | 64.68042 | 36168 ft | 439 kts | 306° |
| 2026-05-08 05:42 | 34.68046 | 64.62203 | 36165 ft | 440 kts | 306° |
| 2026-05-08 05:43 | 34.71811 | 64.56370 | 36155 ft | 441 kts | 306° |
| 2026-05-08 05:43 | 34.75592 | 64.50503 | 36157 ft | 441 kts | 306° |
| 2026-05-08 05:44 | 34.79374 | 64.44628 | 36153 ft | 440 kts | 306° |
| 2026-05-08 05:44 | 34.83122 | 64.38795 | 36143 ft | 441 kts | 306° |
| 2026-05-08 05:45 | 34.86889 | 64.32924 | 36131 ft | 440 kts | 306° |
| 2026-05-08 05:45 | 34.90664 | 64.27028 | 36123 ft | 441 kts | 306° |
| 2026-05-08 05:46 | 34.94439 | 64.21124 | 36112 ft | 442 kts | 306° |
| 2026-05-08 05:46 | 34.98218 | 64.15203 | 36118 ft | 442 kts | 306° |
| 2026-05-08 05:47 | 35.01995 | 64.09277 | 36105 ft | 443 kts | 306° |
| 2026-05-08 05:47 | 35.05769 | 64.03352 | 36091 ft | 443 kts | 305° |
| 2026-05-08 05:48 | 35.09543 | 63.97406 | 36098 ft | 443 kts | 305° |
| 2026-05-08 05:48 | 35.13320 | 63.91444 | 36115 ft | 444 kts | 305° |
| 2026-05-08 05:49 | 35.17100 | 63.85472 | 36114 ft | 445 kts | 305° |
| 2026-05-08 05:49 | 35.20889 | 63.79474 | 36112 ft | 446 kts | 305° |
| 2026-05-08 05:50 | 35.24682 | 63.73462 | 36111 ft | 447 kts | 305° |
| 2026-05-08 05:50 | 35.28447 | 63.67484 | 36117 ft | 447 kts | 305° |
| 2026-05-08 05:51 | 35.32251 | 63.61447 | 36114 ft | 447 kts | 305° |
| 2026-05-08 05:51 | 35.36058 | 63.55437 | 36093 ft | 446 kts | 305° |
| 2026-05-08 05:52 | 35.39861 | 63.49417 | 36098 ft | 447 kts | 305° |
| 2026-05-08 05:52 | 35.43661 | 63.43389 | 36087 ft | 447 kts | 305° |
| 2026-05-08 05:53 | 35.47458 | 63.37355 | 36079 ft | 447 kts | 304° |
| 2026-05-08 05:53 | 35.51258 | 63.31304 | 36080 ft | 447 kts | 304° |
| 2026-05-08 05:54 | 35.55056 | 63.25248 | 36097 ft | 448 kts | 304° |
| 2026-05-08 05:54 | 35.58858 | 63.19174 | 36089 ft | 448 kts | 304° |
| 2026-05-08 05:55 | 35.62607 | 63.13074 | 36089 ft | 448 kts | 304° |
| 2026-05-08 05:55 | 35.66349 | 63.06953 | 36082 ft | 448 kts | 304° |
| 2026-05-08 05:56 | 35.70092 | 63.00833 | 36082 ft | 448 kts | 303° |
| 2026-05-08 05:56 | 35.73811 | 62.94745 | 36082 ft | 448 kts | 303° |
| 2026-05-08 05:57 | 35.77546 | 62.88618 | 36076 ft | 448 kts | 303° |
| 2026-05-08 05:57 | 35.81288 | 62.82471 | 36065 ft | 448 kts | 303° |
| 2026-05-08 05:58 | 35.85019 | 62.76331 | 36075 ft | 448 kts | 303° |
| 2026-05-08 05:58 | 35.88746 | 62.70187 | 36077 ft | 448 kts | 303° |
| 2026-05-08 05:59 | 35.92468 | 62.64039 | 36074 ft | 448 kts | 303° |
| 2026-05-08 05:59 | 35.96190 | 62.57880 | 36073 ft | 447 kts | 303° |
| 2026-05-08 06:00 | 35.99912 | 62.51711 | 36075 ft | 447 kts | 303° |
| 2026-05-08 06:00 | 36.03613 | 62.45564 | 36086 ft | 446 kts | 303° |
| 2026-05-08 06:01 | 36.07314 | 62.39408 | 36079 ft | 446 kts | 303° |
| 2026-05-08 06:01 | 36.11013 | 62.33243 | 36076 ft | 446 kts | 303° |
| 2026-05-08 06:02 | 36.14699 | 62.27089 | 36073 ft | 445 kts | 303° |
| 2026-05-08 06:02 | 36.17760 | 62.21971 | 36074 ft | 445 kts | 302° |
| 2026-05-08 06:03 | 36.21443 | 62.15802 | 36067 ft | 446 kts | 302° |
| 2026-05-08 06:03 | 36.25722 | 62.08620 | 36070 ft | 446 kts | 302° |
| 2026-05-08 06:04 | 36.28807 | 62.03433 | 36076 ft | 446 kts | 302° |
| 2026-05-08 06:04 | 36.32488 | 61.97233 | 36072 ft | 446 kts | 302° |
| 2026-05-08 06:05 | 36.36163 | 61.91033 | 36079 ft | 446 kts | 302° |
| 2026-05-08 06:05 | 36.39811 | 61.84867 | 36081 ft | 446 kts | 302° |
| 2026-05-08 06:06 | 36.43479 | 61.78656 | 36072 ft | 446 kts | 302° |
| 2026-05-08 06:06 | 36.47139 | 61.72448 | 36071 ft | 445 kts | 302° |
| 2026-05-08 06:07 | 36.50797 | 61.66230 | 36072 ft | 446 kts | 302° |
| 2026-05-08 06:07 | 36.54450 | 61.60010 | 36071 ft | 445 kts | 302° |
| 2026-05-08 06:08 | 36.58098 | 61.53788 | 36069 ft | 445 kts | 302° |
| 2026-05-08 06:08 | 36.61745 | 61.47560 | 36064 ft | 445 kts | 302° |
| 2026-05-08 06:09 | 36.65351 | 61.41314 | 36055 ft | 444 kts | 301° |
| 2026-05-08 06:09 | 36.68913 | 61.35026 | 36057 ft | 444 kts | 301° |
| 2026-05-08 06:10 | 36.72476 | 61.28743 | 36061 ft | 444 kts | 301° |
| 2026-05-08 06:10 | 36.76037 | 61.22464 | 36072 ft | 443 kts | 301° |
| 2026-05-08 06:11 | 36.79594 | 61.16183 | 36076 ft | 443 kts | 301° |
| 2026-05-08 06:11 | 36.83150 | 61.09893 | 36077 ft | 443 kts | 301° |
| 2026-05-08 06:12 | 36.86699 | 61.03602 | 36073 ft | 443 kts | 300° |
| 2026-05-08 06:12 | 36.90237 | 60.97319 | 36072 ft | 442 kts | 300° |
| 2026-05-08 06:13 | 36.93774 | 60.91025 | 36104 ft | 442 kts | 300° |
| 2026-05-08 06:13 | 36.97308 | 60.84727 | 36085 ft | 442 kts | 300° |
| 2026-05-08 06:14 | 37.01011 | 60.78573 | 36074 ft | 444 kts | 303° |
| 2026-05-08 06:14 | 37.04865 | 60.72551 | 36072 ft | 443 kts | 303° |
| 2026-05-08 06:15 | 37.08651 | 60.66536 | 36098 ft | 442 kts | 303° |
| 2026-05-08 06:15 | 37.12465 | 60.60420 | 36086 ft | 442 kts | 303° |
| 2026-05-08 06:16 | 37.16242 | 60.54346 | 36080 ft | 441 kts | 303° |
| 2026-05-08 06:16 | 37.20011 | 60.48276 | 36074 ft | 441 kts | 302° |
| 2026-05-08 06:17 | 37.25633 | 60.39201 | 36080 ft | 441 kts | 302° |
| 2026-05-08 06:17 | 37.29385 | 60.33129 | 36082 ft | 440 kts | 302° |
| 2026-05-08 06:18 | 37.33139 | 60.27044 | 36079 ft | 440 kts | 302° |
| 2026-05-08 06:18 | 37.36888 | 60.20957 | 36070 ft | 441 kts | 302° |
| 2026-05-08 06:19 | 37.40641 | 60.14853 | 36092 ft | 441 kts | 302° |
| 2026-05-08 06:19 | 37.44385 | 60.08751 | 36081 ft | 440 kts | 302° |
| 2026-05-08 06:20 | 37.48120 | 60.02651 | 36081 ft | 440 kts | 302° |
| 2026-05-08 06:20 | 37.51849 | 59.96551 | 36099 ft | 439 kts | 302° |
| 2026-05-08 06:21 | 37.55571 | 59.90452 | 36074 ft | 439 kts | 302° |
| 2026-05-08 06:21 | 37.59287 | 59.84353 | 36081 ft | 438 kts | 301° |
| 2026-05-08 06:22 | 37.62989 | 59.78261 | 36078 ft | 438 kts | 301° |
| 2026-05-08 06:22 | 37.66690 | 59.72162 | 36079 ft | 437 kts | 301° |
| 2026-05-08 06:23 | 37.70381 | 59.66069 | 36072 ft | 437 kts | 301° |
| 2026-05-08 06:23 | 37.74067 | 59.59972 | 36086 ft | 436 kts | 301° |
| 2026-05-08 06:24 | 37.77746 | 59.53877 | 36073 ft | 436 kts | 301° |
| 2026-05-08 06:24 | 37.81425 | 59.47768 | 36080 ft | 436 kts | 301° |
| 2026-05-08 06:25 | 37.85098 | 59.41659 | 36076 ft | 436 kts | 301° |
| 2026-05-08 06:25 | 37.88755 | 59.35537 | 36076 ft | 434 kts | 299° |
| 2026-05-08 06:26 | 37.91936 | 59.29106 | 36073 ft | 431 kts | 295° |
| 2026-05-08 06:26 | 37.95078 | 59.22623 | 36086 ft | 432 kts | 295° |
| 2026-05-08 06:27 | 37.98215 | 59.16141 | 36089 ft | 431 kts | 295° |
| 2026-05-08 06:27 | 38.01341 | 59.09651 | 36084 ft | 431 kts | 295° |
| 2026-05-08 06:28 | 38.04437 | 59.03209 | 36088 ft | 431 kts | 295° |
| 2026-05-08 06:28 | 38.07553 | 58.96711 | 36083 ft | 431 kts | 295° |
| 2026-05-08 06:29 | 38.10664 | 58.90210 | 36076 ft | 431 kts | 295° |
| 2026-05-08 06:29 | 38.13770 | 58.83707 | 36076 ft | 430 kts | 295° |
| 2026-05-08 06:30 | 38.16864 | 58.77214 | 36075 ft | 430 kts | 294° |
| 2026-05-08 06:30 | 38.19965 | 58.70695 | 36096 ft | 431 kts | 295° |
| 2026-05-08 06:31 | 38.23060 | 58.64177 | 36089 ft | 430 kts | 295° |
| 2026-05-08 06:31 | 38.26147 | 58.57662 | 36084 ft | 430 kts | 295° |
| 2026-05-08 06:32 | 38.29225 | 58.51152 | 36077 ft | 429 kts | 294° |
| 2026-05-08 06:32 | 38.32300 | 58.44635 | 36076 ft | 429 kts | 294° |
| 2026-05-08 06:33 | 38.35366 | 58.38122 | 36072 ft | 428 kts | 294° |
| 2026-05-08 06:33 | 38.38425 | 58.31614 | 36070 ft | 428 kts | 294° |
| 2026-05-08 06:34 | 38.41180 | 58.24949 | 36071 ft | 422 kts | 288° |
| 2026-05-08 06:34 | 38.43581 | 58.18121 | 36081 ft | 423 kts | 288° |
| 2026-05-08 06:35 | 38.46013 | 58.11278 | 36082 ft | 423 kts | 288° |
| 2026-05-08 06:35 | 38.48431 | 58.04440 | 36082 ft | 423 kts | 288° |
| 2026-05-08 06:36 | 38.50828 | 57.97635 | 36085 ft | 423 kts | 288° |
| 2026-05-08 06:36 | 38.53239 | 57.90774 | 36081 ft | 423 kts | 288° |
| 2026-05-08 06:37 | 38.55642 | 57.83919 | 36079 ft | 423 kts | 288° |
| 2026-05-08 06:37 | 38.58048 | 57.77039 | 36084 ft | 424 kts | 288° |
| 2026-05-08 06:38 | 38.60449 | 57.70159 | 36086 ft | 424 kts | 288° |
| 2026-05-08 06:38 | 38.62676 | 57.63206 | 36089 ft | 421 kts | 284° |
| 2026-05-08 06:39 | 38.64682 | 57.56173 | 36110 ft | 421 kts | 284° |
| 2026-05-08 06:39 | 38.66699 | 57.49147 | 36106 ft | 420 kts | 284° |
| 2026-05-08 06:40 | 38.68705 | 57.42128 | 36102 ft | 420 kts | 284° |
| 2026-05-08 06:40 | 38.70701 | 57.35114 | 36080 ft | 419 kts | 283° |
| 2026-05-08 06:41 | 38.72690 | 57.28103 | 36085 ft | 419 kts | 283° |
| 2026-05-08 06:41 | 38.74676 | 57.21091 | 36094 ft | 418 kts | 283° |
| 2026-05-08 06:42 | 38.76652 | 57.14087 | 36093 ft | 418 kts | 283° |
| 2026-05-08 06:42 | 38.78626 | 57.07075 | 36086 ft | 419 kts | 283° |
| 2026-05-08 06:43 | 38.80584 | 57.00101 | 36091 ft | 419 kts | 283° |
| 2026-05-08 06:43 | 38.82555 | 56.93064 | 36104 ft | 420 kts | 282° |
| 2026-05-08 06:44 | 38.84525 | 56.86007 | 36099 ft | 420 kts | 282° |
| 2026-05-08 06:44 | 38.86495 | 56.78934 | 36094 ft | 421 kts | 282° |
| 2026-05-08 06:45 | 38.88464 | 56.71844 | 36106 ft | 422 kts | 282° |
| 2026-05-08 06:45 | 38.90436 | 56.64723 | 36466 ft | 423 kts | 282° |
| 2026-05-08 06:46 | 38.91415 | 56.61191 | 37085 ft | 417 kts | 282° |
| 2026-05-08 06:46 | 38.92384 | 56.57693 | 37596 ft | 413 kts | 282° |
| 2026-05-08 06:46 | 38.93340 | 56.54229 | 38029 ft | 412 kts | 281° |
| 2026-05-08 06:46 | 38.94292 | 56.50761 | 38111 ft | 410 kts | 281° |
| 2026-05-08 06:47 | 38.96174 | 56.43918 | 38112 ft | 406 kts | 281° |
| 2026-05-08 06:47 | 38.98049 | 56.37056 | 38112 ft | 407 kts | 281° |
| 2026-05-08 06:48 | 38.99923 | 56.30185 | 38116 ft | 407 kts | 280° |
| 2026-05-08 06:48 | 39.01530 | 56.23205 | 38111 ft | 407 kts | 278° |
| 2026-05-08 06:49 | 39.03143 | 56.16224 | 38109 ft | 407 kts | 278° |
| 2026-05-08 06:49 | 39.04747 | 56.09243 | 38113 ft | 407 kts | 278° |
| 2026-05-08 06:50 | 39.06345 | 56.02245 | 38117 ft | 407 kts | 278° |
| 2026-05-08 06:50 | 39.07928 | 55.95290 | 38151 ft | 407 kts | 278° |
| 2026-05-08 06:51 | 39.09516 | 55.88289 | 38119 ft | 407 kts | 278° |
| 2026-05-08 06:51 | 39.10831 | 55.82473 | 38119 ft | 407 kts | 278° |
| 2026-05-08 06:52 | 39.12413 | 55.75461 | 38106 ft | 408 kts | 277° |
| 2026-05-08 06:52 | 39.13990 | 55.68445 | 38113 ft | 408 kts | 277° |
| 2026-05-08 06:53 | 39.15557 | 55.61452 | 38149 ft | 409 kts | 277° |
| 2026-05-08 06:53 | 39.17132 | 55.54406 | 38121 ft | 410 kts | 277° |
| 2026-05-08 06:54 | 39.18691 | 55.47390 | 38118 ft | 410 kts | 277° |
| 2026-05-08 06:54 | 39.20261 | 55.40307 | 38124 ft | 411 kts | 277° |
| 2026-05-08 06:55 | 39.21826 | 55.33224 | 38121 ft | 411 kts | 277° |
| 2026-05-08 06:55 | 39.23388 | 55.26132 | 38145 ft | 412 kts | 277° |
| 2026-05-08 06:56 | 39.24950 | 55.19019 | 38112 ft | 412 kts | 277° |
| 2026-05-08 06:56 | 39.26508 | 55.11896 | 38116 ft | 412 kts | 277° |
| 2026-05-08 06:57 | 39.28061 | 55.04774 | 38118 ft | 413 kts | 277° |
| 2026-05-08 06:57 | 39.29613 | 54.97635 | 38115 ft | 414 kts | 277° |
| 2026-05-08 06:58 | 39.31165 | 54.90472 | 38096 ft | 415 kts | 277° |
| 2026-05-08 06:58 | 39.32717 | 54.83286 | 38111 ft | 416 kts | 276° |
| 2026-05-08 06:59 | 39.34267 | 54.76082 | 38119 ft | 417 kts | 276° |
| 2026-05-08 06:59 | 39.35818 | 54.68854 | 38130 ft | 418 kts | 276° |
| 2026-05-08 07:00 | 39.37365 | 54.61623 | 38140 ft | 418 kts | 276° |
| 2026-05-08 07:00 | 39.38911 | 54.54369 | 38140 ft | 418 kts | 276° |
| 2026-05-08 07:01 | 39.40453 | 54.47110 | 38126 ft | 419 kts | 276° |
| 2026-05-08 07:01 | 39.41990 | 54.39846 | 38132 ft | 419 kts | 276° |
| 2026-05-08 07:02 | 39.43526 | 54.32568 | 38134 ft | 419 kts | 276° |
| 2026-05-08 07:02 | 39.45057 | 54.25287 | 38130 ft | 420 kts | 276° |
| 2026-05-08 07:03 | 39.46585 | 54.17992 | 38117 ft | 420 kts | 276° |
| 2026-05-08 07:03 | 39.48111 | 54.10687 | 38120 ft | 420 kts | 276° |
| 2026-05-08 07:04 | 39.49980 | 54.03454 | 38120 ft | 431 kts | 284° |
| 2026-05-08 07:04 | 39.52982 | 53.96574 | 38157 ft | 447 kts | 294° |
| 2026-05-08 07:05 | 39.56588 | 53.89980 | 38104 ft | 449 kts | 294° |
| 2026-05-08 07:05 | 39.60174 | 53.83343 | 38111 ft | 450 kts | 294° |
| 2026-05-08 07:06 | 39.63770 | 53.76674 | 38111 ft | 451 kts | 294° |
| 2026-05-08 07:06 | 39.67372 | 53.69984 | 38116 ft | 453 kts | 295° |
| 2026-05-08 07:07 | 39.70962 | 53.63308 | 38131 ft | 454 kts | 295° |
| 2026-05-08 07:07 | 39.74603 | 53.56520 | 38120 ft | 455 kts | 295° |
| 2026-05-08 07:08 | 39.78200 | 53.49798 | 38120 ft | 457 kts | 295° |
| 2026-05-08 07:08 | 39.81829 | 53.43005 | 38121 ft | 458 kts | 295° |
| 2026-05-08 07:09 | 39.85458 | 53.36199 | 38128 ft | 458 kts | 295° |
| 2026-05-08 07:09 | 39.89084 | 53.29380 | 38113 ft | 459 kts | 295° |
| 2026-05-08 07:10 | 39.92716 | 53.22536 | 38138 ft | 459 kts | 295° |
| 2026-05-08 07:10 | 39.96348 | 53.15679 | 38149 ft | 460 kts | 295° |
| 2026-05-08 07:11 | 39.99979 | 53.08807 | 38165 ft | 461 kts | 295° |
| 2026-05-08 07:11 | 40.03641 | 53.01860 | 38141 ft | 463 kts | 295° |
| 2026-05-08 07:12 | 40.07303 | 52.94928 | 38153 ft | 464 kts | 295° |
| 2026-05-08 07:12 | 40.10976 | 52.87982 | 38158 ft | 465 kts | 295° |
| 2026-05-08 07:13 | 40.14627 | 52.81053 | 38126 ft | 467 kts | 296° |
| 2026-05-08 07:13 | 40.18309 | 52.74052 | 38137 ft | 468 kts | 296° |
| 2026-05-08 07:14 | 40.21990 | 52.67036 | 38142 ft | 468 kts | 296° |
| 2026-05-08 07:14 | 40.25364 | 52.59833 | 38153 ft | 459 kts | 288° |
| 2026-05-08 07:15 | 40.27587 | 52.52126 | 38152 ft | 447 kts | 277° |
| 2026-05-08 07:15 | 40.29079 | 52.44248 | 38153 ft | 446 kts | 277° |
| 2026-05-08 07:16 | 40.30594 | 52.36382 | 38152 ft | 446 kts | 277° |
| 2026-05-08 07:16 | 40.32095 | 52.28500 | 38163 ft | 445 kts | 277° |
| 2026-05-08 07:17 | 40.33581 | 52.20633 | 38159 ft | 444 kts | 277° |
| 2026-05-08 07:17 | 40.35060 | 52.12770 | 38152 ft | 444 kts | 277° |
| 2026-05-08 07:18 | 40.36529 | 52.04924 | 38155 ft | 443 kts | 277° |
| 2026-05-08 07:18 | 40.37992 | 51.97079 | 38164 ft | 443 kts | 277° |
| 2026-05-08 07:19 | 40.39448 | 51.89240 | 38157 ft | 442 kts | 277° |
| 2026-05-08 07:19 | 40.40898 | 51.81403 | 38154 ft | 442 kts | 276° |
| 2026-05-08 07:20 | 40.42344 | 51.73556 | 38166 ft | 443 kts | 276° |
| 2026-05-08 07:20 | 40.43785 | 51.65702 | 38163 ft | 443 kts | 276° |
| 2026-05-08 07:21 | 40.45211 | 51.57893 | 38162 ft | 444 kts | 276° |
| 2026-05-08 07:21 | 40.46608 | 51.49994 | 38164 ft | 441 kts | 273° |
| 2026-05-08 07:22 | 40.47396 | 51.42048 | 38169 ft | 439 kts | 270° |
| 2026-05-08 07:22 | 40.48146 | 51.34095 | 38174 ft | 439 kts | 270° |
| 2026-05-08 07:23 | 40.48893 | 51.26155 | 38173 ft | 439 kts | 270° |
| 2026-05-08 07:23 | 40.49632 | 51.18164 | 38145 ft | 441 kts | 271° |
| 2026-05-08 07:24 | 40.50367 | 51.10151 | 38155 ft | 443 kts | 271° |
| 2026-05-08 07:24 | 40.51100 | 51.02113 | 38178 ft | 444 kts | 271° |
| 2026-05-08 07:25 | 40.51828 | 50.94047 | 38181 ft | 445 kts | 270° |
| 2026-05-08 07:26 | 40.53277 | 50.81935 | 38206 ft | 449 kts | 275° |
| 2026-05-08 07:26 | 40.54404 | 50.73837 | 38152 ft | 451 kts | 274° |
| 2026-05-08 07:27 | 40.55483 | 50.65710 | 38153 ft | 451 kts | 274° |
| 2026-05-08 07:27 | 40.56542 | 50.57571 | 38150 ft | 452 kts | 274° |
| 2026-05-08 07:28 | 40.57596 | 50.49426 | 38151 ft | 452 kts | 274° |
| 2026-05-08 07:28 | 40.58584 | 50.41743 | 38147 ft | 453 kts | 274° |
| 2026-05-08 07:29 | 40.59624 | 50.33612 | 38138 ft | 454 kts | 274° |
| 2026-05-08 07:29 | 40.60671 | 50.25390 | 38132 ft | 454 kts | 274° |
| 2026-05-08 07:30 | 40.61710 | 50.17177 | 38148 ft | 454 kts | 274° |
| 2026-05-08 07:30 | 40.62735 | 50.09022 | 38132 ft | 455 kts | 274° |
| 2026-05-08 07:31 | 40.63761 | 50.00812 | 38121 ft | 456 kts | 274° |
| 2026-05-08 07:31 | 40.64786 | 49.92564 | 38130 ft | 456 kts | 274° |
| 2026-05-08 07:32 | 40.65806 | 49.84305 | 38140 ft | 457 kts | 274° |
| 2026-05-08 07:32 | 40.66819 | 49.76053 | 38146 ft | 457 kts | 274° |
| 2026-05-08 07:33 | 40.67827 | 49.67787 | 38155 ft | 457 kts | 274° |
| 2026-05-08 07:33 | 40.68829 | 49.59515 | 38152 ft | 458 kts | 274° |
| 2026-05-08 07:34 | 40.69829 | 49.51224 | 38155 ft | 458 kts | 274° |
| 2026-05-08 07:34 | 40.70812 | 49.43000 | 38158 ft | 458 kts | 274° |
| 2026-05-08 07:35 | 40.71795 | 49.34704 | 38171 ft | 458 kts | 274° |
| 2026-05-08 07:35 | 40.72618 | 49.26406 | 38159 ft | 455 kts | 268° |
| 2026-05-08 07:36 | 40.72376 | 49.18125 | 38161 ft | 450 kts | 258° |
| 2026-05-08 07:36 | 40.71463 | 49.09973 | 38149 ft | 450 kts | 258° |
| 2026-05-08 07:37 | 40.70578 | 49.01796 | 38166 ft | 451 kts | 258° |
| 2026-05-08 07:37 | 40.69681 | 48.93614 | 38167 ft | 452 kts | 258° |
| 2026-05-08 07:38 | 40.68778 | 48.85480 | 38177 ft | 452 kts | 258° |
| 2026-05-08 07:38 | 40.67860 | 48.77272 | 38185 ft | 453 kts | 258° |
| 2026-05-08 07:39 | 40.66937 | 48.69068 | 38183 ft | 453 kts | 258° |
| 2026-05-08 07:39 | 40.66009 | 48.60872 | 38182 ft | 452 kts | 258° |
| 2026-05-08 07:40 | 40.65073 | 48.52668 | 38175 ft | 454 kts | 258° |
| 2026-05-08 07:40 | 40.64289 | 48.45839 | 38178 ft | 454 kts | 258° |
| 2026-05-08 07:41 | 40.63181 | 48.36239 | 38199 ft | 454 kts | 258° |
| 2026-05-08 07:41 | 40.62386 | 48.29403 | 38191 ft | 454 kts | 258° |
| 2026-05-08 07:42 | 40.61424 | 48.21172 | 38198 ft | 456 kts | 258° |
| 2026-05-08 07:42 | 40.60458 | 48.12942 | 38199 ft | 455 kts | 258° |
| 2026-05-08 07:43 | 40.59489 | 48.04724 | 38204 ft | 454 kts | 258° |
| 2026-05-08 07:43 | 40.58569 | 47.96491 | 38184 ft | 456 kts | 261° |
| 2026-05-08 07:44 | 40.58554 | 47.88093 | 38162 ft | 462 kts | 269° |
| 2026-05-08 07:44 | 40.58850 | 47.79637 | 38169 ft | 463 kts | 268° |
| 2026-05-08 07:45 | 40.59119 | 47.71163 | 38177 ft | 465 kts | 268° |
| 2026-05-08 07:45 | 40.59383 | 47.62663 | 38189 ft | 466 kts | 268° |
| 2026-05-08 07:46 | 40.59643 | 47.54130 | 38178 ft | 467 kts | 269° |
| 2026-05-08 07:46 | 40.59899 | 47.45568 | 38189 ft | 468 kts | 269° |
| 2026-05-08 07:47 | 40.60149 | 47.37001 | 38196 ft | 469 kts | 268° |
| 2026-05-08 07:47 | 40.60392 | 47.28416 | 38196 ft | 470 kts | 268° |
| 2026-05-08 07:48 | 40.60630 | 47.19832 | 38194 ft | 469 kts | 269° |
| 2026-05-08 07:48 | 40.61389 | 47.11318 | 38186 ft | 472 kts | 274° |
| 2026-05-08 07:49 | 40.62279 | 47.02760 | 38194 ft | 472 kts | 274° |
| 2026-05-08 07:49 | 40.63152 | 46.94199 | 38179 ft | 473 kts | 274° |
| 2026-05-08 07:50 | 40.64020 | 46.85626 | 38170 ft | 473 kts | 274° |
| 2026-05-08 07:50 | 40.64882 | 46.77042 | 38178 ft | 472 kts | 274° |
| 2026-05-08 07:51 | 40.65738 | 46.68466 | 38179 ft | 472 kts | 274° |
| 2026-05-08 07:51 | 40.66578 | 46.59973 | 38183 ft | 473 kts | 274° |
| 2026-05-08 07:52 | 40.67423 | 46.51370 | 38190 ft | 473 kts | 274° |
| 2026-05-08 07:52 | 40.68262 | 46.42768 | 38189 ft | 473 kts | 274° |
| 2026-05-08 07:53 | 40.69094 | 46.34163 | 38186 ft | 473 kts | 274° |
| 2026-05-08 07:53 | 40.69919 | 46.25560 | 38200 ft | 473 kts | 274° |
| 2026-05-08 07:54 | 40.70733 | 46.17003 | 38178 ft | 474 kts | 275° |
| 2026-05-08 07:54 | 40.71546 | 46.08397 | 38179 ft | 474 kts | 274° |
| 2026-05-08 07:55 | 40.72354 | 45.99769 | 38187 ft | 474 kts | 274° |
| 2026-05-08 07:55 | 40.73154 | 45.91139 | 38168 ft | 474 kts | 274° |
| 2026-05-08 07:56 | 40.73951 | 45.82493 | 38180 ft | 475 kts | 275° |
| 2026-05-08 07:56 | 40.74742 | 45.73829 | 38179 ft | 476 kts | 275° |
| 2026-05-08 07:57 | 40.75528 | 45.65151 | 38188 ft | 477 kts | 275° |
| 2026-05-08 07:57 | 40.76309 | 45.56451 | 38177 ft | 478 kts | 274° |
| 2026-05-08 07:58 | 40.76984 | 45.47741 | 38198 ft | 476 kts | 271° |
| 2026-05-08 07:58 | 40.77369 | 45.39011 | 38194 ft | 477 kts | 272° |
| 2026-05-08 07:59 | 40.77783 | 45.30274 | 38198 ft | 477 kts | 271° |
| 2026-05-08 07:59 | 40.78181 | 45.21532 | 38196 ft | 477 kts | 271° |
| 2026-05-08 08:00 | 40.78569 | 45.12787 | 38191 ft | 477 kts | 271° |
| 2026-05-08 08:00 | 40.78950 | 45.04040 | 38198 ft | 477 kts | 271° |
| 2026-05-08 08:01 | 40.79324 | 44.95288 | 38191 ft | 478 kts | 271° |
| 2026-05-08 08:01 | 40.79691 | 44.86542 | 38188 ft | 477 kts | 271° |
| 2026-05-08 08:02 | 40.80052 | 44.77798 | 38189 ft | 477 kts | 271° |
| 2026-05-08 08:02 | 40.80404 | 44.69102 | 38188 ft | 478 kts | 271° |
| 2026-05-08 08:03 | 40.80752 | 44.60349 | 38225 ft | 478 kts | 271° |
| 2026-05-08 08:03 | 40.81093 | 44.51582 | 38200 ft | 478 kts | 271° |
| 2026-05-08 08:04 | 40.81428 | 44.42814 | 38210 ft | 478 kts | 272° |
| 2026-05-08 08:04 | 40.81756 | 44.34048 | 38215 ft | 478 kts | 271° |
| 2026-05-08 08:05 | 40.82079 | 44.25278 | 38215 ft | 478 kts | 271° |
| 2026-05-08 08:05 | 40.82389 | 44.16628 | 38230 ft | 478 kts | 272° |
| 2026-05-08 08:06 | 40.82698 | 44.07852 | 38214 ft | 479 kts | 271° |
| 2026-05-08 08:06 | 40.82997 | 43.99166 | 38221 ft | 480 kts | 271° |
| 2026-05-08 08:07 | 40.83293 | 43.90360 | 38215 ft | 480 kts | 271° |
| 2026-05-08 08:07 | 40.83585 | 43.81548 | 38217 ft | 481 kts | 271° |
| 2026-05-08 08:08 | 40.83869 | 43.72730 | 38219 ft | 481 kts | 272° |
| 2026-05-08 08:08 | 40.84194 | 43.63898 | 38205 ft | 482 kts | 273° |
| 2026-05-08 08:09 | 40.84722 | 43.55078 | 38203 ft | 482 kts | 274° |
| 2026-05-08 08:09 | 40.85243 | 43.46249 | 38208 ft | 482 kts | 274° |
| 2026-05-08 08:10 | 40.85731 | 43.37411 | 38216 ft | 482 kts | 274° |
| 2026-05-08 08:10 | 40.86205 | 43.28586 | 38214 ft | 482 kts | 273° |
| 2026-05-08 08:11 | 40.86673 | 43.19757 | 38210 ft | 482 kts | 273° |
| 2026-05-08 08:11 | 40.87134 | 43.10933 | 38205 ft | 481 kts | 273° |
| 2026-05-08 08:12 | 40.87586 | 43.02165 | 38208 ft | 481 kts | 273° |
| 2026-05-08 08:12 | 40.88033 | 42.93345 | 38209 ft | 481 kts | 273° |
| 2026-05-08 08:13 | 40.88473 | 42.84522 | 38203 ft | 481 kts | 274° |
| 2026-05-08 08:13 | 40.88908 | 42.75691 | 38212 ft | 481 kts | 274° |
| 2026-05-08 08:14 | 40.89336 | 42.66864 | 38220 ft | 482 kts | 273° |
| 2026-05-08 08:14 | 40.89746 | 42.58243 | 38221 ft | 482 kts | 273° |
| 2026-05-08 08:15 | 40.90161 | 42.49405 | 38223 ft | 482 kts | 274° |
| 2026-05-08 08:15 | 40.90568 | 42.40563 | 38219 ft | 482 kts | 274° |
| 2026-05-08 08:16 | 40.90970 | 42.31710 | 38218 ft | 483 kts | 273° |
| 2026-05-08 08:16 | 40.91365 | 42.22856 | 38225 ft | 482 kts | 273° |
| 2026-05-08 08:17 | 40.91753 | 42.14001 | 38230 ft | 482 kts | 273° |
| 2026-05-08 08:17 | 40.92134 | 42.05146 | 38205 ft | 483 kts | 274° |
| 2026-05-08 08:18 | 40.92509 | 41.96280 | 38209 ft | 483 kts | 274° |
| 2026-05-08 08:18 | 40.92878 | 41.87395 | 38206 ft | 484 kts | 273° |
| 2026-05-08 08:19 | 40.93240 | 41.78517 | 38208 ft | 484 kts | 273° |
| 2026-05-08 08:19 | 40.93594 | 41.69635 | 38211 ft | 483 kts | 273° |
| 2026-05-08 08:20 | 40.93940 | 41.60823 | 38208 ft | 483 kts | 274° |
| 2026-05-08 08:20 | 40.94281 | 41.51942 | 38209 ft | 483 kts | 274° |
| 2026-05-08 08:21 | 40.94615 | 41.43065 | 38219 ft | 484 kts | 273° |
| 2026-05-08 08:21 | 40.94943 | 41.34183 | 38215 ft | 483 kts | 273° |
| 2026-05-08 08:22 | 40.95264 | 41.25307 | 38205 ft | 483 kts | 273° |
| 2026-05-08 08:22 | 40.95577 | 41.16438 | 38223 ft | 483 kts | 273° |
| 2026-05-08 08:23 | 40.95884 | 41.07561 | 38215 ft | 483 kts | 273° |
| 2026-05-08 08:23 | 40.96185 | 40.98680 | 38219 ft | 483 kts | 273° |
| 2026-05-08 08:24 | 40.96482 | 40.89807 | 38216 ft | 483 kts | 273° |
| 2026-05-08 08:24 | 40.96767 | 40.80929 | 38211 ft | 483 kts | 273° |
| 2026-05-08 08:25 | 40.97043 | 40.72051 | 38206 ft | 483 kts | 273° |
| 2026-05-08 08:25 | 40.97313 | 40.63237 | 38215 ft | 483 kts | 273° |
| 2026-05-08 08:26 | 40.97579 | 40.54368 | 38213 ft | 483 kts | 273° |
| 2026-05-08 08:26 | 40.97835 | 40.45585 | 38204 ft | 483 kts | 273° |
| 2026-05-08 08:27 | 40.98087 | 40.36714 | 38205 ft | 483 kts | 273° |
| 2026-05-08 08:27 | 40.98332 | 40.27831 | 38202 ft | 483 kts | 273° |
| 2026-05-08 08:28 | 40.98571 | 40.18948 | 38206 ft | 483 kts | 273° |
| 2026-05-08 08:28 | 40.98799 | 40.10074 | 38207 ft | 482 kts | 273° |
| 2026-05-08 08:29 | 40.99019 | 40.01205 | 38208 ft | 482 kts | 273° |
| 2026-05-08 08:29 | 40.99234 | 39.92334 | 38209 ft | 482 kts | 273° |
| 2026-05-08 08:30 | 40.99442 | 39.83465 | 38223 ft | 482 kts | 273° |
| 2026-05-08 08:30 | 41.00284 | 39.71746 | 38203 ft | 481 kts | 279° |
| 2026-05-08 08:31 | 41.01133 | 39.62962 | 38207 ft | 481 kts | 278° |
| 2026-05-08 08:31 | 41.01968 | 39.54177 | 38197 ft | 481 kts | 278° |
| 2026-05-08 08:32 | 41.02797 | 39.45380 | 38206 ft | 481 kts | 279° |
| 2026-05-08 08:32 | 41.03619 | 39.36592 | 38203 ft | 481 kts | 279° |
| 2026-05-08 08:33 | 41.04435 | 39.27802 | 38201 ft | 481 kts | 278° |
| 2026-05-08 08:33 | 41.05243 | 39.19011 | 38202 ft | 481 kts | 278° |
| 2026-05-08 08:34 | 41.06042 | 39.10278 | 38196 ft | 480 kts | 278° |
| 2026-05-08 08:34 | 41.06861 | 39.01439 | 38194 ft | 480 kts | 278° |
| 2026-05-08 08:35 | 41.07668 | 38.92664 | 38191 ft | 480 kts | 278° |
| 2026-05-08 08:35 | 41.08467 | 38.83890 | 38179 ft | 480 kts | 278° |
| 2026-05-08 08:36 | 41.09258 | 38.75110 | 38202 ft | 479 kts | 278° |
| 2026-05-08 08:36 | 41.10034 | 38.66402 | 38201 ft | 479 kts | 278° |
| 2026-05-08 08:37 | 41.10788 | 38.57626 | 38202 ft | 479 kts | 278° |
| 2026-05-08 08:37 | 41.11522 | 38.48858 | 38202 ft | 479 kts | 278° |
| 2026-05-08 08:38 | 41.12251 | 38.40078 | 38209 ft | 478 kts | 278° |
| 2026-05-08 08:38 | 41.12975 | 38.31307 | 38209 ft | 478 kts | 278° |
| 2026-05-08 08:39 | 41.13693 | 38.22540 | 38211 ft | 478 kts | 278° |
| 2026-05-08 08:39 | 41.14411 | 38.13767 | 38215 ft | 478 kts | 278° |
| 2026-05-08 08:40 | 41.15120 | 38.05011 | 38224 ft | 477 kts | 278° |
| 2026-05-08 08:40 | 41.15822 | 37.96263 | 38214 ft | 476 kts | 278° |
| 2026-05-08 08:41 | 41.16511 | 37.87587 | 38206 ft | 476 kts | 278° |
| 2026-05-08 08:41 | 41.17247 | 37.78877 | 38198 ft | 475 kts | 278° |
| 2026-05-08 08:42 | 41.17994 | 37.70170 | 38189 ft | 474 kts | 278° |
| 2026-05-08 08:42 | 41.18726 | 37.61469 | 38187 ft | 474 kts | 278° |
| 2026-05-08 08:43 | 41.19226 | 37.52737 | 38183 ft | 474 kts | 276° |
| 2026-05-08 08:43 | 41.19824 | 37.44130 | 38190 ft | 473 kts | 278° |
| 2026-05-08 08:44 | 41.20491 | 37.35430 | 38188 ft | 473 kts | 278° |
| 2026-05-08 08:44 | 41.21136 | 37.26747 | 38192 ft | 473 kts | 278° |
| 2026-05-08 08:45 | 41.21779 | 37.18053 | 38184 ft | 473 kts | 278° |
| 2026-05-08 08:45 | 41.22462 | 37.09370 | 38183 ft | 473 kts | 278° |
| 2026-05-08 08:46 | 41.23136 | 37.00698 | 38183 ft | 472 kts | 278° |
| 2026-05-08 08:46 | 41.23799 | 36.92010 | 38186 ft | 472 kts | 278° |
| 2026-05-08 08:47 | 41.24454 | 36.83335 | 38185 ft | 472 kts | 278° |
| 2026-05-08 08:47 | 41.25101 | 36.74668 | 38198 ft | 471 kts | 278° |
| 2026-05-08 08:48 | 41.25741 | 36.66005 | 38196 ft | 471 kts | 278° |
| 2026-05-08 08:48 | 41.26414 | 36.57363 | 38193 ft | 469 kts | 281° |
| 2026-05-08 08:49 | 41.28041 | 36.49030 | 38164 ft | 465 kts | 291° |
| 2026-05-08 08:49 | 41.30138 | 36.40909 | 38165 ft | 464 kts | 290° |
| 2026-05-08 08:50 | 41.32202 | 36.32774 | 38166 ft | 464 kts | 290° |
| 2026-05-08 08:50 | 41.34263 | 36.24630 | 38178 ft | 464 kts | 290° |
| 2026-05-08 08:51 | 41.36321 | 36.16483 | 38179 ft | 464 kts | 290° |
| 2026-05-08 08:51 | 41.38361 | 36.08379 | 38170 ft | 465 kts | 290° |
| 2026-05-08 08:52 | 41.40407 | 36.00224 | 38178 ft | 465 kts | 290° |
| 2026-05-08 08:52 | 41.42448 | 35.92058 | 38175 ft | 464 kts | 290° |
| 2026-05-08 08:53 | 41.44481 | 35.83897 | 38175 ft | 464 kts | 290° |
| 2026-05-08 08:53 | 41.46510 | 35.75726 | 38173 ft | 464 kts | 290° |
| 2026-05-08 08:54 | 41.48530 | 35.67560 | 38178 ft | 464 kts | 290° |
| 2026-05-08 08:54 | 41.50545 | 35.59391 | 38175 ft | 464 kts | 290° |
| 2026-05-08 08:55 | 41.52554 | 35.51217 | 38176 ft | 463 kts | 290° |
| 2026-05-08 08:55 | 41.54555 | 35.43044 | 38170 ft | 463 kts | 290° |
| 2026-05-08 08:56 | 41.56549 | 35.34870 | 38166 ft | 463 kts | 290° |
| 2026-05-08 08:56 | 41.58539 | 35.26683 | 38167 ft | 463 kts | 290° |
| 2026-05-08 08:57 | 41.60507 | 35.18563 | 38170 ft | 463 kts | 290° |
| 2026-05-08 08:57 | 41.62482 | 35.10383 | 38168 ft | 462 kts | 290° |
| 2026-05-08 08:58 | 41.64448 | 35.02211 | 38165 ft | 462 kts | 290° |
| 2026-05-08 08:58 | 41.66407 | 34.94037 | 38157 ft | 461 kts | 290° |
| 2026-05-08 08:59 | 41.68360 | 34.85864 | 38154 ft | 461 kts | 290° |
| 2026-05-08 08:59 | 41.70307 | 34.77690 | 38146 ft | 461 kts | 290° |
| 2026-05-08 09:00 | 41.72246 | 34.69510 | 38162 ft | 461 kts | 290° |
| 2026-05-08 09:00 | 41.74183 | 34.61322 | 38161 ft | 461 kts | 290° |
| 2026-05-08 09:01 | 41.76113 | 34.53127 | 38153 ft | 461 kts | 289° |
| 2026-05-08 09:01 | 41.78031 | 34.44931 | 38145 ft | 461 kts | 289° |
| 2026-05-08 09:02 | 41.79948 | 34.36735 | 38159 ft | 461 kts | 289° |
| 2026-05-08 09:02 | 41.81859 | 34.28534 | 38166 ft | 461 kts | 289° |
| 2026-05-08 09:03 | 41.83764 | 34.20325 | 38155 ft | 461 kts | 289° |
| 2026-05-08 09:03 | 41.85664 | 34.12107 | 38178 ft | 461 kts | 289° |
| 2026-05-08 09:04 | 41.87556 | 34.03892 | 38167 ft | 461 kts | 289° |
| 2026-05-08 09:04 | 41.89443 | 33.95668 | 38178 ft | 461 kts | 289° |
| 2026-05-08 09:05 | 41.91322 | 33.87448 | 38160 ft | 460 kts | 289° |
| 2026-05-08 09:05 | 41.93181 | 33.79291 | 38171 ft | 460 kts | 288° |
| 2026-05-08 09:06 | 41.95046 | 33.71073 | 38162 ft | 459 kts | 288° |
| 2026-05-08 09:06 | 41.96736 | 33.62796 | 38153 ft | 459 kts | 286° |
| 2026-05-08 09:07 | 41.98289 | 33.54463 | 38158 ft | 459 kts | 286° |
| 2026-05-08 09:07 | 41.99835 | 33.46311 | 38155 ft | 459 kts | 286° |
| 2026-05-08 09:08 | 42.01419 | 33.38015 | 38161 ft | 457 kts | 286° |
| 2026-05-08 09:08 | 42.02996 | 33.29736 | 38156 ft | 457 kts | 286° |
| 2026-05-08 09:09 | 42.04564 | 33.21464 | 38144 ft | 456 kts | 285° |
| 2026-05-08 09:09 | 42.06122 | 33.13212 | 38146 ft | 455 kts | 285° |